Wetterdaten: Dienstag, 03.12.2013
Datum Zeit Temp. Aussen +5cm Feuchte Auss Luftdruck Regen Sonnenschein Regendauer UV Solar Windben
03.12.2013 00:00 1,4 C 0,0 C 96 % 1030,9 hPa 0,0 l/m 0 min 0 min 0,0 UV-I 0 W/m 0,0 km/h (0 Bft)
03.12.2013 00:02 1,4 C 0,0 C 95 % 1030,9 hPa 0,0 l/m 0 min 0 min 0,0 UV-I 0 W/m 0,0 km/h (0 Bft)
03.12.2013 00:06 1,3 C 0,0 C 95 % 1030,9 hPa 0,0 l/m 0 min 0 min 0,0 UV-I 0 W/m 0,0 km/h (0 Bft)
03.12.2013 00:08 1,3 C 0,0 C 95 % 1030,9 hPa 0,0 l/m 0 min 0 min 0,0 UV-I 0 W/m 0,0 km/h (0 Bft)
03.12.2013 00:10 1,3 C 0,0 C 95 % 1030,9 hPa 0,0 l/m 0 min 0 min 0,0 UV-I 0 W/m 0,0 km/h (0 Bft)
03.12.2013 00:12 1,3 C 0,0 C 95 % 1030,9 hPa 0,0 l/m 0 min 0 min 0,0 UV-I 0 W/m 0,0 km/h (0 Bft)
03.12.2013 00:14 1,3 C 0,0 C 95 % 1030,8 hPa 0,0 l/m 0 min 0 min 0,0 UV-I 0 W/m 0,0 km/h (0 Bft)
03.12.2013 00:16 1,2 C 0,0 C 95 % 1030,9 hPa 0,0 l/m 0 min 0 min 0,0 UV-I 0 W/m 0,0 km/h (0 Bft)
03.12.2013 00:18 1,2 C 0,0 C 96 % 1030,8 hPa 0,0 l/m 0 min 0 min 0,0 UV-I 0 W/m 0,0 km/h (0 Bft)
03.12.2013 00:20 1,2 C 0,0 C 96 % 1030,8 hPa 0,0 l/m 0 min 0 min 0,0 UV-I 0 W/m 0,0 km/h (0 Bft)
03.12.2013 00:22 1,2 C -0,6 C 96 % 1030,9 hPa 0,0 l/m 0 min 0 min 0,0 UV-I 0 W/m 0,0 km/h (0 Bft)
03.12.2013 00:24 1,1 C -0,6 C 96 % 1030,8 hPa 0,0 l/m 0 min 0 min 0,0 UV-I 0 W/m 0,0 km/h (0 Bft)
03.12.2013 00:26 1,1 C -0,6 C 96 % 1030,8 hPa 0,0 l/m 0 min 0 min 0,0 UV-I 0 W/m 0,0 km/h (0 Bft)
03.12.2013 00:28 1,1 C -0,6 C 96 % 1030,8 hPa 0,0 l/m 0 min 0 min 0,0 UV-I 0 W/m 0,0 km/h (0 Bft)
03.12.2013 00:30 1,0 C -0,6 C 95 % 1030,7 hPa 0,0 l/m 0 min 0 min 0,0 UV-I 0 W/m 0,0 km/h (0 Bft)
03.12.2013 00:32 1,0 C -0,6 C 96 % 1030,7 hPa 0,0 l/m 0 min 0 min 0,0 UV-I 0 W/m 0,0 km/h (0 Bft)
03.12.2013 00:34 1,0 C -0,6 C 96 % 1030,7 hPa 0,0 l/m 0 min 0 min 0,0 UV-I 0 W/m 0,0 km/h (0 Bft)
03.12.2013 00:36 0,9 C -0,6 C 96 % 1030,7 hPa 0,0 l/m 0 min 0 min 0,0 UV-I 0 W/m 0,0 km/h (0 Bft)
03.12.2013 00:38 0,9 C -0,6 C 96 % 1030,6 hPa 0,0 l/m 0 min 0 min 0,0 UV-I 0 W/m 0,0 km/h (0 Bft)
03.12.2013 00:40 0,9 C -0,6 C 96 % 1030,7 hPa 0,0 l/m 0 min 0 min 0,0 UV-I 0 W/m 0,0 km/h (0 Bft)
03.12.2013 00:42 0,8 C -0,6 C 96 % 1030,6 hPa 0,0 l/m 0 min 0 min 0,0 UV-I 0 W/m 0,0 km/h (0 Bft)
03.12.2013 00:44 0,8 C -0,6 C 96 % 1030,6 hPa 0,0 l/m 0 min 0 min 0,0 UV-I 0 W/m 0,0 km/h (0 Bft)
03.12.2013 00:46 0,7 C -0,6 C 96 % 1030,6 hPa 0,0 l/m 0 min 0 min 0,0 UV-I 0 W/m 0,0 km/h (0 Bft)
03.12.2013 00:48 0,7 C -0,6 C 96 % 1030,5 hPa 0,0 l/m 0 min 0 min 0,0 UV-I 0 W/m 0,0 km/h (0 Bft)
03.12.2013 00:50 0,7 C -0,6 C 96 % 1030,6 hPa 0,0 l/m 0 min 0 min 0,0 UV-I 0 W/m 0,0 km/h (0 Bft)
03.12.2013 00:52 0,7 C -0,6 C 96 % 1030,6 hPa 0,0 l/m 0 min 0 min 0,0 UV-I 0 W/m 0,0 km/h (0 Bft)
03.12.2013 00:54 0,6 C -1,1 C 96 % 1030,6 hPa 0,0 l/m 0 min 0 min 0,0 UV-I 0 W/m 0,0 km/h (0 Bft)
03.12.2013 00:56 0,6 C -1,1 C 96 % 1030,6 hPa 0,0 l/m 0 min 0 min 0,0 UV-I 0 W/m 0,0 km/h (0 Bft)
03.12.2013 00:58 0,5 C -1,1 C 96 % 1030,6 hPa 0,0 l/m 0 min 0 min 0,0 UV-I 0 W/m 0,0 km/h (0 Bft)
03.12.2013 01:00 0,5 C -1,1 C 96 % 1030,5 hPa 0,0 l/m 0 min 0 min 0,0 UV-I 0 W/m 0,0 km/h (0 Bft)
03.12.2013 01:02 0,5 C -1,1 C 96 % 1030,5 hPa 0,0 l/m 0 min 0 min 0,0 UV-I 0 W/m 0,0 km/h (0 Bft)
03.12.2013 01:04 0,4 C -1,1 C 96 % 1030,5 hPa 0,0 l/m 0 min 0 min 0,0 UV-I 0 W/m 0,0 km/h (0 Bft)
03.12.2013 01:06 0,4 C -1,1 C 96 % 1030,5 hPa 0,0 l/m 0 min 0 min 0,0 UV-I 0 W/m 0,0 km/h (0 Bft)
03.12.2013 01:08 0,4 C -1,1 C 96 % 1030,5 hPa 0,0 l/m 0 min 0 min 0,0 UV-I 0 W/m 0,0 km/h (0 Bft)
03.12.2013 01:10 0,4 C -1,1 C 96 % 1030,5 hPa 0,0 l/m 0 min 0 min 0,0 UV-I 0 W/m 0,0 km/h (0 Bft)
03.12.2013 01:12 0,4 C -1,1 C 96 % 1030,6 hPa 0,0 l/m 0 min 0 min 0,0 UV-I 0 W/m 0,0 km/h (0 Bft)
03.12.2013 01:14 0,4 C -1,1 C 96 % 1030,5 hPa 0,0 l/m 0 min 0 min 0,0 UV-I 0 W/m 0,0 km/h (0 Bft)
03.12.2013 01:16 0,5 C -1,1 C 96 % 1030,5 hPa 0,0 l/m 0 min 0 min 0,0 UV-I 0 W/m 0,0 km/h (0 Bft)
03.12.2013 01:18 0,5 C -1,1 C 96 % 1030,5 hPa 0,0 l/m 0 min 0 min 0,0 UV-I 0 W/m 2,6 km/h (1 Bft)
03.12.2013 01:20 0,5 C -1,1 C 96 % 1030,4 hPa 0,0 l/m 0 min 0 min 0,0 UV-I 0 W/m 0,0 km/h (0 Bft)
03.12.2013 01:22 0,5 C -1,1 C 96 % 1030,4 hPa 0,0 l/m 0 min 0 min 0,0 UV-I 0 W/m 0,0 km/h (0 Bft)
03.12.2013 01:24 0,5 C -1,1 C 96 % 1030,5 hPa 0,0 l/m 0 min 0 min 0,0 UV-I 0 W/m 0,0 km/h (0 Bft)
03.12.2013 01:26 0,6 C -1,1 C 96 % 1030,5 hPa 0,0 l/m 0 min 0 min 0,0 UV-I 0 W/m 0,0 km/h (0 Bft)
03.12.2013 01:28 0,6 C -1,1 C 96 % 1030,5 hPa 0,0 l/m 0 min 0 min 0,0 UV-I 0 W/m 0,0 km/h (0 Bft)
03.12.2013 01:30 0,6 C -1,1 C 96 % 1030,5 hPa 0,0 l/m 0 min 0 min 0,0 UV-I 0 W/m 0,0 km/h (0 Bft)
03.12.2013 01:32 0,6 C -1,1 C 96 % 1030,5 hPa 0,0 l/m 0 min 0 min 0,0 UV-I 0 W/m 0,0 km/h (0 Bft)
03.12.2013 01:34 0,5 C -1,1 C 96 % 1030,5 hPa 0,0 l/m 0 min 0 min 0,0 UV-I 0 W/m 0,0 km/h (0 Bft)
03.12.2013 01:36 0,5 C -1,1 C 96 % 1030,4 hPa 0,0 l/m 0 min 0 min 0,0 UV-I 0 W/m 0,0 km/h (0 Bft)
03.12.2013 01:38 0,5 C -1,1 C 96 % 1030,4 hPa 0,0 l/m 0 min 0 min 0,0 UV-I 0 W/m 0,0 km/h (0 Bft)
03.12.2013 01:40 0,5 C -1,1 C 96 % 1030,4 hPa 0,0 l/m 0 min 0 min 0,0 UV-I 0 W/m 0,0 km/h (0 Bft)
03.12.2013 01:42 0,5 C -1,1 C 96 % 1030,4 hPa 0,0 l/m 0 min 0 min 0,0 UV-I 0 W/m 0,0 km/h (0 Bft)
03.12.2013 01:44 0,5 C -1,1 C 96 % 1030,4 hPa 0,0 l/m 0 min 0 min 0,0 UV-I 0 W/m 0,0 km/h (0 Bft)
03.12.2013 01:46 0,5 C -1,1 C 96 % 1030,4 hPa 0,0 l/m 0 min 0 min 0,0 UV-I 0 W/m 0,0 km/h (0 Bft)
03.12.2013 01:48 0,5 C -1,1 C 96 % 1030,5 hPa 0,0 l/m 0 min 0 min 0,0 UV-I 0 W/m 0,0 km/h (0 Bft)
03.12.2013 01:50 0,5 C -1,1 C 96 % 1030,4 hPa 0,0 l/m 0 min 0 min 0,0 UV-I 0 W/m 0,0 km/h (0 Bft)
03.12.2013 01:52 0,5 C -1,1 C 96 % 1030,3 hPa 0,0 l/m 0 min 0 min 0,0 UV-I 0 W/m 0,0 km/h (0 Bft)
03.12.2013 01:54 0,5 C -1,1 C 96 % 1030,3 hPa 0,0 l/m 0 min 0 min 0,0 UV-I 0 W/m 0,0 km/h (0 Bft)
03.12.2013 01:56 0,5 C -1,1 C 96 % 1030,3 hPa 0,0 l/m 0 min 0 min 0,0 UV-I 0 W/m 0,0 km/h (0 Bft)
03.12.2013 01:58 0,5 C -1,1 C 96 % 1030,2 hPa 0,0 l/m 0 min 0 min 0,0 UV-I 0 W/m 0,0 km/h (0 Bft)
03.12.2013 02:00 0,5 C -1,1 C 96 % 1030,2 hPa 0,0 l/m 0 min 0 min 0,0 UV-I 0 W/m 0,0 km/h (0 Bft)
03.12.2013 02:02 0,5 C -1,1 C 96 % 1030,2 hPa 0,0 l/m 0 min 0 min 0,0 UV-I 0 W/m 0,0 km/h (0 Bft)
03.12.2013 02:04 0,5 C -1,1 C 96 % 1030,2 hPa 0,0 l/m 0 min 0 min 0,0 UV-I 0 W/m 0,0 km/h (0 Bft)
03.12.2013 02:06 0,5 C -1,1 C 96 % 1030,1 hPa 0,0 l/m 0 min 0 min 0,0 UV-I 0 W/m 0,0 km/h (0 Bft)
03.12.2013 02:08 0,5 C -0,6 C 96 % 1030,2 hPa 0,0 l/m 0 min 0 min 0,0 UV-I 0 W/m 0,0 km/h (0 Bft)
03.12.2013 02:10 0,5 C -0,6 C 96 % 1030,2 hPa 0,0 l/m 0 min 0 min 0,0 UV-I 0 W/m 0,0 km/h (0 Bft)
03.12.2013 02:12 0,5 C -0,6 C 96 % 1030,2 hPa 0,0 l/m 0 min 0 min 0,0 UV-I 0 W/m 2,6 km/h (1 Bft)
03.12.2013 02:14 0,5 C -0,6 C 96 % 1030,2 hPa 0,0 l/m 0 min 0 min 0,0 UV-I 0 W/m 0,0 km/h (0 Bft)
03.12.2013 02:16 0,5 C -0,6 C 96 % 1030,2 hPa 0,0 l/m 0 min 0 min 0,0 UV-I 0 W/m 0,0 km/h (0 Bft)
03.12.2013 02:18 0,5 C -0,6 C 96 % 1030,1 hPa 0,0 l/m 0 min 0 min 0,0 UV-I 0 W/m 0,0 km/h (0 Bft)
03.12.2013 02:20 0,5 C -0,6 C 96 % 1030,1 hPa 0,0 l/m 0 min 0 min 0,0 UV-I 0 W/m 0,0 km/h (0 Bft)
03.12.2013 02:22 0,5 C -0,6 C 96 % 1030,1 hPa 0,0 l/m 0 min 0 min 0,0 UV-I 0 W/m 0,0 km/h (0 Bft)
03.12.2013 02:24 0,5 C -0,6 C 96 % 1030,1 hPa 0,0 l/m 0 min 0 min 0,0 UV-I 0 W/m 5,1 km/h (1 Bft)
03.12.2013 02:26 0,5 C -0,6 C 96 % 1030,1 hPa 0,0 l/m 0 min 0 min 0,0 UV-I 0 W/m 5,1 km/h (1 Bft)
03.12.2013 02:28 0,5 C -0,6 C 96 % 1030,1 hPa 0,0 l/m 0 min 0 min 0,0 UV-I 0 W/m 10,3 km/h (2 Bft)
03.12.2013 02:30 0,5 C -0,6 C 96 % 1030,1 hPa 0,0 l/m 0 min 0 min 0,0 UV-I 0 W/m 5,1 km/h (1 Bft)
03.12.2013 02:32 0,6 C -0,6 C 96 % 1030,1 hPa 0,0 l/m 0 min 0 min 0,0 UV-I 0 W/m 10,3 km/h (2 Bft)
03.12.2013 02:34 0,7 C 0,0 C 96 % 1030,1 hPa 0,0 l/m 0 min 0 min 0,0 UV-I 0 W/m 10,3 km/h (2 Bft)
03.12.2013 02:36 0,7 C 0,0 C 97 % 1030,1 hPa 0,0 l/m 0 min 0 min 0,0 UV-I 0 W/m 7,7 km/h (2 Bft)
03.12.2013 02:38 0,7 C 0,0 C 97 % 1030,1 hPa 0,0 l/m 0 min 0 min 0,0 UV-I 0 W/m 0,0 km/h (0 Bft)
03.12.2013 02:40 0,8 C 0,0 C 97 % 1030,1 hPa 0,0 l/m 0 min 0 min 0,0 UV-I 0 W/m 0,0 km/h (0 Bft)
03.12.2013 02:42 0,8 C 0,0 C 97 % 1030,1 hPa 0,0 l/m 0 min 0 min 0,0 UV-I 0 W/m 2,6 km/h (1 Bft)
03.12.2013 02:44 0,8 C 0,0 C 97 % 1030,1 hPa 0,0 l/m 0 min 0 min 0,0 UV-I 0 W/m 7,7 km/h (2 Bft)
03.12.2013 02:46 0,8 C 0,0 C 97 % 1030,1 hPa 0,0 l/m 0 min 0 min 0,0 UV-I 0 W/m 2,6 km/h (1 Bft)
03.12.2013 02:48 0,8 C 0,0 C 97 % 1030,1 hPa 0,0 l/m 0 min 0 min 0,0 UV-I 0 W/m 0,0 km/h (0 Bft)
03.12.2013 02:50 0,8 C 0,0 C 97 % 1030,0 hPa 0,0 l/m 0 min 0 min 0,0 UV-I 0 W/m 0,0 km/h (0 Bft)
03.12.2013 02:52 0,8 C 0,0 C 97 % 1030,0 hPa 0,0 l/m 0 min 0 min 0,0 UV-I 0 W/m 7,7 km/h (2 Bft)
03.12.2013 02:54 0,9 C 0,0 C 97 % 1030,0 hPa 0,0 l/m 0 min 0 min 0,0 UV-I 0 W/m 5,1 km/h (1 Bft)
03.12.2013 02:56 0,9 C 0,0 C 97 % 1030,0 hPa 0,0 l/m 0 min 0 min 0,0 UV-I 0 W/m 0,0 km/h (0 Bft)
03.12.2013 02:58 0,9 C 0,0 C 97 % 1030,0 hPa 0,0 l/m 0 min 0 min 0,0 UV-I 0 W/m 0,0 km/h (0 Bft)
03.12.2013 03:00 0,9 C 0,0 C 97 % 1030,0 hPa 0,0 l/m 0 min 0 min 0,0 UV-I 0 W/m 0,0 km/h (0 Bft)
03.12.2013 03:02 0,9 C 0,0 C 96 % 1030,0 hPa 0,0 l/m 0 min 0 min 0,0 UV-I 0 W/m 5,1 km/h (1 Bft)
03.12.2013 03:04 0,9 C 0,0 C 96 % 1029,9 hPa 0,0 l/m 0 min 0 min 0,0 UV-I 0 W/m 5,1 km/h (1 Bft)
03.12.2013 03:06 0,9 C 0,0 C 96 % 1029,9 hPa 0,0 l/m 0 min 0 min 0,0 UV-I 0 W/m 0,0 km/h (0 Bft)
03.12.2013 03:08 0,9 C 0,0 C 96 % 1030,0 hPa 0,0 l/m 0 min 0 min 0,0 UV-I 0 W/m 5,1 km/h (1 Bft)
03.12.2013 03:10 1,0 C 0,0 C 97 % 1029,9 hPa 0,0 l/m 0 min 0 min 0,0 UV-I 0 W/m 0,0 km/h (0 Bft)
03.12.2013 03:12 1,0 C 0,0 C 97 % 1029,8 hPa 0,0 l/m 0 min 0 min 0,0 UV-I 0 W/m 0,0 km/h (0 Bft)
03.12.2013 03:14 1,1 C 0,0 C 97 % 1029,8 hPa 0,0 l/m 0 min 0 min 0,0 UV-I 0 W/m 5,1 km/h (1 Bft)
03.12.2013 03:16 1,1 C 0,0 C 97 % 1029,8 hPa 0,0 l/m 0 min 0 min 0,0 UV-I 0 W/m 2,6 km/h (1 Bft)
03.12.2013 03:18 1,1 C 0,0 C 97 % 1029,7 hPa 0,0 l/m 0 min 0 min 0,0 UV-I 0 W/m 10,3 km/h (2 Bft)
03.12.2013 03:20 1,1 C 0,0 C 97 % 1029,8 hPa 0,0 l/m 0 min 0 min 0,0 UV-I 0 W/m 7,7 km/h (2 Bft)
03.12.2013 03:22 1,1 C 0,0 C 97 % 1029,7 hPa 0,0 l/m 0 min 0 min 0,0 UV-I 0 W/m 10,3 km/h (2 Bft)
03.12.2013 03:24 1,1 C 0,0 C 97 % 1029,7 hPa 0,0 l/m 0 min 0 min 0,0 UV-I 0 W/m 10,3 km/h (2 Bft)
03.12.2013 03:26 1,1 C 0,0 C 97 % 1029,6 hPa 0,0 l/m 0 min 0 min 0,0 UV-I 0 W/m 15,4 km/h (3 Bft)
03.12.2013 03:28 1,2 C 0,6 C 97 % 1029,5 hPa 0,0 l/m 0 min 0 min 0,0 UV-I 0 W/m 10,3 km/h (2 Bft)
03.12.2013 03:30 1,2 C 0,6 C 97 % 1029,4 hPa 0,0 l/m 0 min 0 min 0,0 UV-I 0 W/m 10,3 km/h (2 Bft)
03.12.2013 03:32 1,2 C 0,6 C 96 % 1029,4 hPa 0,0 l/m 0 min 0 min 0,0 UV-I 0 W/m 12,9 km/h (3 Bft)
03.12.2013 03:34 1,2 C 0,6 C 96 % 1029,3 hPa 0,0 l/m 0 min 0 min 0,0 UV-I 0 W/m 7,7 km/h (2 Bft)
03.12.2013 03:36 1,2 C 0,6 C 96 % 1029,4 hPa 0,0 l/m 0 min 0 min 0,0 UV-I 0 W/m 10,3 km/h (2 Bft)
03.12.2013 03:38 1,2 C 0,6 C 96 % 1029,4 hPa 0,0 l/m 0 min 0 min 0,0 UV-I 0 W/m 10,3 km/h (2 Bft)
03.12.2013 03:40 1,2 C 0,6 C 96 % 1029,4 hPa 0,0 l/m 0 min 0 min 0,0 UV-I 0 W/m 15,4 km/h (3 Bft)
03.12.2013 03:42 1,3 C 0,6 C 96 % 1029,5 hPa 0,0 l/m 0 min 0 min 0,0 UV-I 0 W/m 18,0 km/h (3 Bft)
03.12.2013 03:44 1,3 C 0,6 C 96 % 1029,4 hPa 0,0 l/m 0 min 0 min 0,0 UV-I 0 W/m 12,9 km/h (3 Bft)
03.12.2013 03:46 1,3 C 0,6 C 96 % 1029,4 hPa 0,0 l/m 0 min 0 min 0,0 UV-I 0 W/m 10,3 km/h (2 Bft)
03.12.2013 03:48 1,3 C 0,6 C 96 % 1029,4 hPa 0,0 l/m 0 min 0 min 0,0 UV-I 0 W/m 7,7 km/h (2 Bft)
03.12.2013 03:50 1,3 C 0,6 C 96 % 1029,4 hPa 0,0 l/m 0 min 0 min 0,0 UV-I 0 W/m 12,9 km/h (3 Bft)
03.12.2013 03:52 1,3 C 0,6 C 96 % 1029,4 hPa 0,0 l/m 0 min 0 min 0,0 UV-I 0 W/m 15,4 km/h (3 Bft)
03.12.2013 03:54 1,3 C 0,6 C 96 % 1029,4 hPa 0,0 l/m 0 min 0 min 0,0 UV-I 0 W/m 10,3 km/h (2 Bft)
03.12.2013 03:56 1,3 C 0,6 C 96 % 1029,3 hPa 0,0 l/m 0 min 0 min 0,0 UV-I 0 W/m 7,7 km/h (2 Bft)
03.12.2013 03:58 1,3 C 0,6 C 96 % 1029,4 hPa 0,0 l/m 0 min 0 min 0,0 UV-I 0 W/m 7,7 km/h (2 Bft)
03.12.2013 04:00 1,4 C 0,6 C 96 % 1029,3 hPa 0,0 l/m 0 min 0 min 0,0 UV-I 0 W/m 7,7 km/h (2 Bft)
03.12.2013 04:02 1,3 C 0,6 C 96 % 1029,2 hPa 0,0 l/m 0 min 0 min 0,0 UV-I 0 W/m 7,7 km/h (2 Bft)
03.12.2013 04:04 1,4 C 0,6 C 96 % 1029,2 hPa 0,0 l/m 0 min 0 min 0,0 UV-I 0 W/m 10,3 km/h (2 Bft)
03.12.2013 04:06 1,4 C 0,6 C 96 % 1029,1 hPa 0,0 l/m 0 min 0 min 0,0 UV-I 0 W/m 7,7 km/h (2 Bft)
03.12.2013 04:08 1,4 C 0,6 C 95 % 1029,1 hPa 0,0 l/m 0 min 0 min 0,0 UV-I 0 W/m 10,3 km/h (2 Bft)
03.12.2013 04:10 1,4 C 0,6 C 95 % 1029,1 hPa 0,0 l/m 0 min 0 min 0,0 UV-I 0 W/m 7,7 km/h (2 Bft)
03.12.2013 04:12 1,4 C 0,6 C 95 % 1029,0 hPa 0,0 l/m 0 min 0 min 0,0 UV-I 0 W/m 7,7 km/h (2 Bft)
03.12.2013 04:14 1,4 C 0,6 C 96 % 1029,1 hPa 0,0 l/m 0 min 0 min 0,0 UV-I 0 W/m 7,7 km/h (2 Bft)
03.12.2013 04:16 1,4 C 0,6 C 95 % 1029,1 hPa 0,0 l/m 0 min 0 min 0,0 UV-I 0 W/m 10,3 km/h (2 Bft)
03.12.2013 04:18 1,4 C 0,6 C 95 % 1029,1 hPa 0,0 l/m 0 min 0 min 0,0 UV-I 0 W/m 7,7 km/h (2 Bft)
03.12.2013 04:20 1,4 C 0,6 C 95 % 1029,1 hPa 0,0 l/m 0 min 0 min 0,0 UV-I 0 W/m 10,3 km/h (2 Bft)
03.12.2013 04:22 1,4 C 0,6 C 95 % 1029,1 hPa 0,0 l/m 0 min 0 min 0,0 UV-I 0 W/m 12,9 km/h (3 Bft)
03.12.2013 04:24 1,4 C 0,6 C 95 % 1029,1 hPa 0,0 l/m 0 min 0 min 0,0 UV-I 0 W/m 10,3 km/h (2 Bft)
03.12.2013 04:26 1,4 C 0,6 C 95 % 1029,1 hPa 0,0 l/m 0 min 0 min 0,0 UV-I 0 W/m 7,7 km/h (2 Bft)
03.12.2013 04:28 1,4 C 0,6 C 95 % 1029,1 hPa 0,0 l/m 0 min 0 min 0,0 UV-I 0 W/m 7,7 km/h (2 Bft)
03.12.2013 04:30 1,4 C 0,6 C 95 % 1029,1 hPa 0,0 l/m 0 min 0 min 0,0 UV-I 0 W/m 5,1 km/h (1 Bft)
03.12.2013 04:32 1,4 C 0,6 C 95 % 1029,1 hPa 0,0 l/m 0 min 0 min 0,0 UV-I 0 W/m 10,3 km/h (2 Bft)
03.12.2013 04:34 1,4 C 0,6 C 95 % 1029,1 hPa 0,0 l/m 0 min 0 min 0,0 UV-I 0 W/m 0,0 km/h (0 Bft)
03.12.2013 04:36 1,4 C 0,6 C 95 % 1029,2 hPa 0,0 l/m 0 min 0 min 0,0 UV-I 0 W/m 0,0 km/h (0 Bft)
03.12.2013 04:38 1,4 C 0,6 C 94 % 1029,2 hPa 0,0 l/m 0 min 0 min 0,0 UV-I 0 W/m 7,7 km/h (2 Bft)
03.12.2013 04:40 1,4 C 0,6 C 94 % 1029,3 hPa 0,0 l/m 0 min 0 min 0,0 UV-I 0 W/m 2,6 km/h (1 Bft)
03.12.2013 04:42 1,4 C 0,6 C 94 % 1029,3 hPa 0,0 l/m 0 min 0 min 0,0 UV-I 0 W/m 7,7 km/h (2 Bft)
03.12.2013 04:44 1,4 C 0,6 C 94 % 1029,3 hPa 0,0 l/m 0 min 0 min 0,0 UV-I 0 W/m 0,0 km/h (0 Bft)
03.12.2013 04:46 1,4 C 0,6 C 94 % 1029,3 hPa 0,0 l/m 0 min 0 min 0,0 UV-I 0 W/m 12,9 km/h (3 Bft)
03.12.2013 04:48 1,4 C 0,6 C 94 % 1029,4 hPa 0,0 l/m 0 min 0 min 0,0 UV-I 0 W/m 5,1 km/h (1 Bft)
03.12.2013 04:50 1,4 C 0,6 C 94 % 1029,3 hPa 0,0 l/m 0 min 0 min 0,0 UV-I 0 W/m 5,1 km/h (1 Bft)
03.12.2013 04:52 1,4 C 0,6 C 94 % 1029,3 hPa 0,0 l/m 0 min 0 min 0,0 UV-I 0 W/m 0,0 km/h (0 Bft)
03.12.2013 04:54 1,4 C 0,6 C 94 % 1029,3 hPa 0,0 l/m 0 min 0 min 0,0 UV-I 0 W/m 0,0 km/h (0 Bft)
03.12.2013 04:56 1,4 C 0,6 C 94 % 1029,4 hPa 0,0 l/m 0 min 0 min 0,0 UV-I 0 W/m 5,1 km/h (1 Bft)
03.12.2013 04:58 1,4 C 0,6 C 94 % 1029,4 hPa 0,0 l/m 0 min 0 min 0,0 UV-I 0 W/m 0,0 km/h (0 Bft)
03.12.2013 05:00 1,4 C 0,0 C 94 % 1029,4 hPa 0,0 l/m 0 min 0 min 0,0 UV-I 0 W/m 0,0 km/h (0 Bft)
03.12.2013 05:02 1,4 C 0,0 C 94 % 1029,4 hPa 0,0 l/m 0 min 0 min 0,0 UV-I 0 W/m 0,0 km/h (0 Bft)
03.12.2013 05:04 1,4 C 0,0 C 94 % 1029,4 hPa 0,0 l/m 0 min 0 min 0,0 UV-I 0 W/m 2,6 km/h (1 Bft)
03.12.2013 05:06 1,4 C 0,0 C 94 % 1029,4 hPa 0,0 l/m 0 min 0 min 0,0 UV-I 0 W/m 0,0 km/h (0 Bft)
03.12.2013 05:08 1,4 C 0,0 C 94 % 1029,3 hPa 0,0 l/m 0 min 0 min 0,0 UV-I 0 W/m 5,1 km/h (1 Bft)
03.12.2013 05:10 1,4 C 0,0 C 94 % 1029,3 hPa 0,0 l/m 0 min 0 min 0,0 UV-I 0 W/m 0,0 km/h (0 Bft)
03.12.2013 05:12 1,4 C 0,0 C 94 % 1029,3 hPa 0,0 l/m 0 min 0 min 0,0 UV-I 0 W/m 0,0 km/h (0 Bft)
03.12.2013 05:14 1,4 C 0,0 C 93 % 1029,3 hPa 0,0 l/m 0 min 0 min 0,0 UV-I 0 W/m 2,6 km/h (1 Bft)
03.12.2013 05:16 1,4 C 0,0 C 93 % 1029,3 hPa 0,0 l/m 0 min 0 min 0,0 UV-I 0 W/m 0,0 km/h (0 Bft)
03.12.2013 05:18 1,4 C 0,0 C 93 % 1029,4 hPa 0,0 l/m 0 min 0 min 0,0 UV-I 0 W/m 0,0 km/h (0 Bft)
03.12.2013 05:20 1,4 C 0,0 C 93 % 1029,5 hPa 0,0 l/m 0 min 0 min 0,0 UV-I 0 W/m 0,0 km/h (0 Bft)
03.12.2013 05:22 1,3 C 0,0 C 93 % 1029,4 hPa 0,0 l/m 0 min 0 min 0,0 UV-I 0 W/m 0,0 km/h (0 Bft)
03.12.2013 05:24 1,3 C 0,0 C 93 % 1029,4 hPa 0,0 l/m 0 min 0 min 0,0 UV-I 0 W/m 5,1 km/h (1 Bft)
03.12.2013 05:26 1,3 C 0,0 C 93 % 1029,4 hPa 0,0 l/m 0 min 0 min 0,0 UV-I 0 W/m 0,0 km/h (0 Bft)
03.12.2013 05:28 1,3 C 0,0 C 93 % 1029,4 hPa 0,0 l/m 0 min 0 min 0,0 UV-I 0 W/m 0,0 km/h (0 Bft)
03.12.2013 05:30 1,3 C 0,0 C 93 % 1029,4 hPa 0,0 l/m 0 min 0 min 0,0 UV-I 0 W/m 0,0 km/h (0 Bft)
03.12.2013 05:32 1,3 C 0,0 C 93 % 1029,3 hPa 0,0 l/m 0 min 0 min 0,0 UV-I 0 W/m 0,0 km/h (0 Bft)
03.12.2013 05:34 1,3 C 0,0 C 93 % 1029,3 hPa 0,0 l/m 0 min 0 min 0,0 UV-I 0 W/m 0,0 km/h (0 Bft)
03.12.2013 05:36 1,3 C -0,6 C 93 % 1029,4 hPa 0,0 l/m 0 min 0 min 0,0 UV-I 0 W/m 0,0 km/h (0 Bft)
03.12.2013 05:38 1,2 C -0,6 C 93 % 1029,4 hPa 0,0 l/m 0 min 0 min 0,0 UV-I 0 W/m 0,0 km/h (0 Bft)
03.12.2013 05:40 1,2 C -0,6 C 93 % 1029,4 hPa 0,0 l/m 0 min 0 min 0,0 UV-I 0 W/m 0,0 km/h (0 Bft)
03.12.2013 05:42 1,2 C -0,6 C 93 % 1029,4 hPa 0,0 l/m 0 min 0 min 0,0 UV-I 0 W/m 0,0 km/h (0 Bft)
03.12.2013 05:44 1,2 C -0,6 C 93 % 1029,3 hPa 0,0 l/m 0 min 0 min 0,0 UV-I 0 W/m 0,0 km/h (0 Bft)
03.12.2013 05:46 1,2 C -0,6 C 93 % 1029,4 hPa 0,0 l/m 0 min 0 min 0,0 UV-I 0 W/m 0,0 km/h (0 Bft)
03.12.2013 05:48 1,1 C -0,6 C 93 % 1029,3 hPa 0,0 l/m 0 min 0 min 0,0 UV-I 0 W/m 0,0 km/h (0 Bft)
03.12.2013 05:50 1,1 C -0,6 C 93 % 1029,3 hPa 0,0 l/m 0 min 0 min 0,0 UV-I 0 W/m 0,0 km/h (0 Bft)
03.12.2013 05:52 1,1 C -0,6 C 93 % 1029,4 hPa 0,0 l/m 0 min 0 min 0,0 UV-I 0 W/m 0,0 km/h (0 Bft)
03.12.2013 05:54 1,1 C -0,6 C 93 % 1029,4 hPa 0,0 l/m 0 min 0 min 0,0 UV-I 0 W/m 0,0 km/h (0 Bft)
03.12.2013 05:56 1,1 C -0,6 C 93 % 1029,4 hPa 0,0 l/m 0 min 0 min 0,0 UV-I 0 W/m 0,0 km/h (0 Bft)
03.12.2013 05:58 1,0 C -0,6 C 93 % 1029,3 hPa 0,0 l/m 0 min 0 min 0,0 UV-I 0 W/m 0,0 km/h (0 Bft)
03.12.2013 06:00 1,0 C -0,6 C 93 % 1029,3 hPa 0,0 l/m 0 min 0 min 0,0 UV-I 0 W/m 0,0 km/h (0 Bft)
03.12.2013 06:02 0,9 C -1,1 C 93 % 1029,3 hPa 0,0 l/m 0 min 0 min 0,0 UV-I 0 W/m 0,0 km/h (0 Bft)
03.12.2013 06:04 0,9 C -1,1 C 93 % 1029,3 hPa 0,0 l/m 0 min 0 min 0,0 UV-I 0 W/m 0,0 km/h (0 Bft)
03.12.2013 06:06 0,9 C -1,1 C 93 % 1029,3 hPa 0,0 l/m 0 min 0 min 0,0 UV-I 0 W/m 0,0 km/h (0 Bft)
03.12.2013 06:08 0,9 C -1,1 C 93 % 1029,3 hPa 0,0 l/m 0 min 0 min 0,0 UV-I 0 W/m 0,0 km/h (0 Bft)
03.12.2013 06:10 0,9 C -1,1 C 93 % 1029,4 hPa 0,0 l/m 0 min 0 min 0,0 UV-I 0 W/m 0,0 km/h (0 Bft)
03.12.2013 06:12 0,8 C -1,1 C 93 % 1029,4 hPa 0,0 l/m 0 min 0 min 0,0 UV-I 0 W/m 0,0 km/h (0 Bft)
03.12.2013 06:14 0,8 C -1,1 C 93 % 1029,5 hPa 0,0 l/m 0 min 0 min 0,0 UV-I 0 W/m 0,0 km/h (0 Bft)
03.12.2013 06:16 0,8 C -1,1 C 93 % 1029,6 hPa 0,0 l/m 0 min 0 min 0,0 UV-I 0 W/m 0,0 km/h (0 Bft)
03.12.2013 06:18 0,8 C -1,1 C 93 % 1029,6 hPa 0,0 l/m 0 min 0 min 0,0 UV-I 0 W/m 0,0 km/h (0 Bft)
03.12.2013 06:20 0,7 C -1,1 C 93 % 1029,5 hPa 0,0 l/m 0 min 0 min 0,0 UV-I 0 W/m 0,0 km/h (0 Bft)
03.12.2013 06:22 0,7 C -1,1 C 93 % 1029,5 hPa 0,0 l/m 0 min 0 min 0,0 UV-I 0 W/m 0,0 km/h (0 Bft)
03.12.2013 06:24 0,7 C -1,1 C 93 % 1029,5 hPa 0,0 l/m 0 min 0 min 0,0 UV-I 0 W/m 0,0 km/h (0 Bft)
03.12.2013 06:26 0,7 C -1,1 C 93 % 1029,5 hPa 0,0 l/m 0 min 0 min 0,0 UV-I 0 W/m 0,0 km/h (0 Bft)
03.12.2013 06:28 0,6 C -1,1 C 93 % 1029,5 hPa 0,0 l/m 0 min 0 min 0,0 UV-I 0 W/m 0,0 km/h (0 Bft)
03.12.2013 06:30 0,6 C -1,1 C 93 % 1029,5 hPa 0,0 l/m 0 min 0 min 0,0 UV-I 0 W/m 0,0 km/h (0 Bft)
03.12.2013 06:32 0,5 C -1,1 C 93 % 1029,4 hPa 0,0 l/m 0 min 0 min 0,0 UV-I 0 W/m 0,0 km/h (0 Bft)
03.12.2013 06:34 0,5 C -1,1 C 93 % 1029,4 hPa 0,0 l/m 0 min 0 min 0,0 UV-I 0 W/m 0,0 km/h (0 Bft)
03.12.2013 06:36 0,5 C -1,7 C 93 % 1029,3 hPa 0,0 l/m 0 min 0 min 0,0 UV-I 0 W/m 0,0 km/h (0 Bft)
03.12.2013 06:38 0,5 C -1,7 C 93 % 1029,3 hPa 0,0 l/m 0 min 0 min 0,0 UV-I 0 W/m 0,0 km/h (0 Bft)
03.12.2013 06:40 0,5 C -1,7 C 92 % 1029,3 hPa 0,0 l/m 0 min 0 min 0,0 UV-I 0 W/m 0,0 km/h (0 Bft)
03.12.2013 06:42 0,5 C -1,7 C 92 % 1029,3 hPa 0,0 l/m 0 min 0 min 0,0 UV-I 0 W/m 0,0 km/h (0 Bft)
03.12.2013 06:44 0,5 C -1,7 C 93 % 1029,3 hPa 0,0 l/m 0 min 0 min 0,0 UV-I 0 W/m 0,0 km/h (0 Bft)
03.12.2013 06:46 0,4 C -1,7 C 93 % 1029,3 hPa 0,0 l/m 0 min 0 min 0,0 UV-I 0 W/m 0,0 km/h (0 Bft)
03.12.2013 06:48 0,4 C -1,7 C 93 % 1029,4 hPa 0,0 l/m 0 min 0 min 0,0 UV-I 0 W/m 0,0 km/h (0 Bft)
03.12.2013 06:50 0,4 C -1,7 C 93 % 1029,4 hPa 0,0 l/m 0 min 0 min 0,0 UV-I 0 W/m 0,0 km/h (0 Bft)
03.12.2013 06:52 0,3 C -1,7 C 93 % 1029,4 hPa 0,0 l/m 0 min 0 min 0,0 UV-I 0 W/m 0,0 km/h (0 Bft)
03.12.2013 06:54 0,3 C -1,7 C 93 % 1029,4 hPa 0,0 l/m 0 min 0 min 0,0 UV-I 0 W/m 0,0 km/h (0 Bft)
03.12.2013 06:56 0,3 C -1,7 C 93 % 1029,4 hPa 0,0 l/m 0 min 0 min 0,0 UV-I 0 W/m 0,0 km/h (0 Bft)
03.12.2013 06:58 0,2 C -1,7 C 93 % 1029,3 hPa 0,0 l/m 0 min 0 min 0,0 UV-I 0 W/m 0,0 km/h (0 Bft)
03.12.2013 07:00 0,2 C -1,7 C 93 % 1029,3 hPa 0,0 l/m 0 min 0 min 0,0 UV-I 0 W/m 0,0 km/h (0 Bft)
03.12.2013 07:02 0,2 C -1,7 C 99 % 1029,3 hPa 0,0 l/m 0 min 0 min 0,0 UV-I 0 W/m 0,0 km/h (0 Bft)
03.12.2013 07:04 0,1 C -1,7 C 92 % 1029,3 hPa 0,0 l/m 0 min 0 min 0,0 UV-I 0 W/m 0,0 km/h (0 Bft)
03.12.2013 07:06 0,1 C -1,7 C 92 % 1029,3 hPa 0,0 l/m 0 min 0 min 0,0 UV-I 0 W/m 0,0 km/h (0 Bft)
03.12.2013 07:08 0,1 C -1,7 C 92 % 1029,4 hPa 0,0 l/m 0 min 0 min 0,0 UV-I 0 W/m 0,0 km/h (0 Bft)
03.12.2013 07:10 0,0 C -2,2 C 92 % 1029,4 hPa 0,0 l/m 0 min 0 min 0,0 UV-I 0 W/m 0,0 km/h (0 Bft)
03.12.2013 07:12 -0,1 C -2,2 C 92 % 1029,5 hPa 0,0 l/m 0 min 0 min 0,0 UV-I 0 W/m 0,0 km/h (0 Bft)
03.12.2013 07:14 -0,1 C -2,2 C 93 % 1029,4 hPa 0,0 l/m 0 min 0 min 0,0 UV-I 0 W/m 0,0 km/h (0 Bft)
03.12.2013 07:16 -0,1 C -2,2 C 93 % 1029,3 hPa 0,0 l/m 0 min 0 min 0,0 UV-I 0 W/m 0,0 km/h (0 Bft)
03.12.2013 07:18 -0,2 C -2,2 C 93 % 1029,3 hPa 0,0 l/m 0 min 0 min 0,0 UV-I 0 W/m 0,0 km/h (0 Bft)
03.12.2013 07:20 -0,2 C -2,2 C 93 % 1029,2 hPa 0,0 l/m 0 min 0 min 0,0 UV-I 0 W/m 0,0 km/h (0 Bft)
03.12.2013 07:22 -0,2 C -2,2 C 92 % 1029,3 hPa 0,0 l/m 0 min 0 min 0,0 UV-I 0 W/m 0,0 km/h (0 Bft)
03.12.2013 07:24 -0,3 C -2,2 C 92 % 1029,4 hPa 0,0 l/m 0 min 0 min 0,0 UV-I 0 W/m 0,0 km/h (0 Bft)
03.12.2013 07:26 -0,3 C -2,2 C 92 % 1029,4 hPa 0,0 l/m 0 min 0 min 0,0 UV-I 0 W/m 0,0 km/h (0 Bft)
03.12.2013 07:28 -0,3 C -2,2 C 92 % 1029,4 hPa 0,0 l/m 0 min 0 min 0,0 UV-I 0 W/m 0,0 km/h (0 Bft)
03.12.2013 07:30 -0,3 C -2,2 C 92 % 1029,5 hPa 0,0 l/m 0 min 0 min 0,0 UV-I 0 W/m 0,0 km/h (0 Bft)
03.12.2013 07:32 -0,4 C -2,2 C 92 % 1029,4 hPa 0,0 l/m 0 min 0 min 0,0 UV-I 0 W/m 0,0 km/h (0 Bft)
03.12.2013 07:34 -0,4 C -2,2 C 93 % 1029,4 hPa 0,0 l/m 0 min 0 min 0,0 UV-I 0 W/m 0,0 km/h (0 Bft)
03.12.2013 07:36 -0,5 C -2,2 C 93 % 1029,4 hPa 0,0 l/m 0 min 0 min 0,0 UV-I 0 W/m 0,0 km/h (0 Bft)
03.12.2013 07:38 -0,5 C -2,2 C 93 % 1029,4 hPa 0,0 l/m 0 min 0 min 0,0 UV-I 0 W/m 0,0 km/h (0 Bft)
03.12.2013 07:40 -0,6 C -2,2 C 93 % 1029,4 hPa 0,0 l/m 0 min 0 min 0,0 UV-I 0 W/m 0,0 km/h (0 Bft)
03.12.2013 07:42 -0,6 C -2,2 C 93 % 1029,4 hPa 0,0 l/m 0 min 0 min 0,0 UV-I 0 W/m 0,0 km/h (0 Bft)
03.12.2013 07:44 -0,6 C -2,2 C 92 % 1029,4 hPa 0,0 l/m 0 min 0 min 0,0 UV-I 0 W/m 0,0 km/h (0 Bft)
03.12.2013 07:46 -0,7 C -2,2 C 92 % 1029,4 hPa 0,0 l/m 0 min 0 min 0,0 UV-I 0 W/m 0,0 km/h (0 Bft)
03.12.2013 07:48 -0,7 C -2,2 C 92 % 1029,3 hPa 0,0 l/m 0 min 0 min 0,0 UV-I 0 W/m 0,0 km/h (0 Bft)
03.12.2013 07:50 -0,7 C -2,8 C 92 % 1029,2 hPa 0,0 l/m 0 min 0 min 0,0 UV-I 0 W/m 0,0 km/h (0 Bft)
03.12.2013 07:52 -0,8 C -2,8 C 92 % 1029,3 hPa 0,0 l/m 0 min 0 min 0,0 UV-I 0 W/m 0,0 km/h (0 Bft)
03.12.2013 07:54 -0,8 C -2,8 C 92 % 1029,3 hPa 0,0 l/m 0 min 0 min 0,0 UV-I 0 W/m 0,0 km/h (0 Bft)
03.12.2013 07:56 -0,8 C -2,8 C 93 % 1029,4 hPa 0,0 l/m 0 min 0 min 0,0 UV-I 0 W/m 0,0 km/h (0 Bft)
03.12.2013 07:58 -0,8 C -2,8 C 93 % 1029,3 hPa 0,0 l/m 0 min 0 min 0,0 UV-I 0 W/m 0,0 km/h (0 Bft)
03.12.2013 08:00 -0,9 C -2,8 C 92 % 1029,4 hPa 0,0 l/m 0 min 0 min 0,0 UV-I 0 W/m 0,0 km/h (0 Bft)
03.12.2013 08:02 -0,9 C -2,8 C 92 % 1029,4 hPa 0,0 l/m 0 min 0 min 0,0 UV-I 0 W/m 0,0 km/h (0 Bft)
03.12.2013 08:04 -0,9 C -2,8 C 93 % 1029,4 hPa 0,0 l/m 0 min 0 min 0,0 UV-I 0 W/m 0,0 km/h (0 Bft)
03.12.2013 08:06 -1,0 C -2,8 C 93 % 1029,5 hPa 0,0 l/m 0 min 0 min 0,0 UV-I 0 W/m 0,0 km/h (0 Bft)
03.12.2013 08:08 -1,0 C -2,8 C 93 % 1029,5 hPa 0,0 l/m 0 min 0 min 0,0 UV-I 0 W/m 0,0 km/h (0 Bft)
03.12.2013 08:10 -1,1 C -2,8 C 93 % 1029,5 hPa 0,0 l/m 0 min 0 min 0,0 UV-I 0 W/m 0,0 km/h (0 Bft)
03.12.2013 08:12 -1,1 C -2,8 C 93 % 1029,5 hPa 0,0 l/m 0 min 0 min 0,0 UV-I 0 W/m 0,0 km/h (0 Bft)
03.12.2013 08:14 -1,1 C -2,8 C 93 % 1029,5 hPa 0,0 l/m 0 min 0 min 0,0 UV-I 0 W/m 0,0 km/h (0 Bft)
03.12.2013 08:16 -1,1 C -2,8 C 93 % 1029,4 hPa 0,0 l/m 0 min 0 min 0,0 UV-I 0 W/m 0,0 km/h (0 Bft)
03.12.2013 08:18 -1,1 C -2,8 C 93 % 1029,5 hPa 0,0 l/m 0 min 0 min 0,0 UV-I 0 W/m 0,0 km/h (0 Bft)
03.12.2013 08:20 -1,2 C -2,8 C 93 % 1029,4 hPa 0,0 l/m 0 min 0 min 0,0 UV-I 0 W/m 0,0 km/h (0 Bft)
03.12.2013 08:22 -1,2 C -2,2 C 93 % 1029,4 hPa 0,0 l/m 0 min 0 min 0,0 UV-I 0 W/m 0,0 km/h (0 Bft)
03.12.2013 08:24 -1,2 C -2,2 C 93 % 1029,5 hPa 0,0 l/m 0 min 0 min 0,0 UV-I 5 W/m 0,0 km/h (0 Bft)
03.12.2013 08:26 -1,2 C -2,2 C 93 % 1029,5 hPa 0,0 l/m 0 min 0 min 0,0 UV-I 5 W/m 0,0 km/h (0 Bft)
03.12.2013 08:28 -1,2 C -2,2 C 93 % 1029,5 hPa 0,0 l/m 0 min 0 min 0,0 UV-I 7 W/m 0,0 km/h (0 Bft)
03.12.2013 08:30 -1,2 C -2,2 C 93 % 1029,5 hPa 0,0 l/m 0 min 0 min 0,0 UV-I 7 W/m 0,0 km/h (0 Bft)
03.12.2013 08:32 -1,3 C -2,2 C 93 % 1029,4 hPa 0,0 l/m 0 min 0 min 0,0 UV-I 9 W/m 0,0 km/h (0 Bft)
03.12.2013 08:34 -1,3 C -2,2 C 93 % 1029,4 hPa 0,0 l/m 0 min 0 min 0,0 UV-I 9 W/m 0,0 km/h (0 Bft)
03.12.2013 08:36 -1,3 C -2,2 C 93 % 1029,4 hPa 0,0 l/m 0 min 0 min 0,0 UV-I 11 W/m 0,0 km/h (0 Bft)
03.12.2013 08:38 -1,3 C -2,2 C 93 % 1029,4 hPa 0,0 l/m 0 min 0 min 0,0 UV-I 12 W/m 0,0 km/h (0 Bft)
03.12.2013 08:40 -1,3 C -2,2 C 93 % 1029,4 hPa 0,0 l/m 0 min 0 min 0,0 UV-I 12 W/m 0,0 km/h (0 Bft)
03.12.2013 08:42 -1,3 C -2,2 C 93 % 1029,4 hPa 0,0 l/m 0 min 0 min 0,0 UV-I 16 W/m 0,0 km/h (0 Bft)
03.12.2013 08:44 -1,3 C -2,2 C 93 % 1029,3 hPa 0,0 l/m 0 min 0 min 0,0 UV-I 16 W/m 0,0 km/h (0 Bft)
03.12.2013 08:46 -1,3 C -2,2 C 93 % 1029,3 hPa 0,0 l/m 0 min 0 min 0,0 UV-I 18 W/m 0,0 km/h (0 Bft)
03.12.2013 08:48 -1,3 C -2,2 C 93 % 1029,3 hPa 0,0 l/m 0 min 0 min 0,0 UV-I 19 W/m 0,0 km/h (0 Bft)
03.12.2013 08:50 -1,3 C -2,2 C 93 % 1029,3 hPa 0,0 l/m 0 min 0 min 0,0 UV-I 21 W/m 0,0 km/h (0 Bft)
03.12.2013 08:52 -1,3 C -2,2 C 93 % 1029,3 hPa 0,0 l/m 0 min 0 min 0,0 UV-I 23 W/m 0,0 km/h (0 Bft)
03.12.2013 08:54 -1,3 C -2,2 C 93 % 1029,2 hPa 0,0 l/m 0 min 0 min 0,0 UV-I 23 W/m 0,0 km/h (0 Bft)
03.12.2013 08:56 -1,3 C -2,2 C 94 % 1029,2 hPa 0,0 l/m 0 min 0 min 0,0 UV-I 23 W/m 0,0 km/h (0 Bft)
03.12.2013 08:58 -1,3 C -2,2 C 94 % 1029,2 hPa 0,0 l/m 0 min 0 min 0,0 UV-I 25 W/m 0,0 km/h (0 Bft)
03.12.2013 09:00 -1,3 C -2,2 C 94 % 1029,2 hPa 0,0 l/m 0 min 0 min 0,0 UV-I 26 W/m 0,0 km/h (0 Bft)
03.12.2013 09:02 -1,3 C -2,2 C 94 % 1029,1 hPa 0,0 l/m 0 min 0 min 0,0 UV-I 28 W/m 0,0 km/h (0 Bft)
03.12.2013 09:04 -1,3 C -1,7 C 94 % 1029,2 hPa 0,0 l/m 0 min 0 min 0,0 UV-I 28 W/m 0,0 km/h (0 Bft)
03.12.2013 09:06 -1,2 C -1,7 C 94 % 1029,3 hPa 0,0 l/m 0 min 0 min 0,0 UV-I 30 W/m 0,0 km/h (0 Bft)
03.12.2013 09:08 -1,2 C -1,7 C 94 % 1029,3 hPa 0,0 l/m 0 min 0 min 0,0 UV-I 32 W/m 0,0 km/h (0 Bft)
03.12.2013 09:10 -1,2 C -1,7 C 94 % 1029,3 hPa 0,0 l/m 0 min 0 min 0,0 UV-I 33 W/m 0,0 km/h (0 Bft)
03.12.2013 09:12 -1,1 C -1,7 C 94 % 1029,3 hPa 0,0 l/m 0 min 0 min 0,0 UV-I 35 W/m 0,0 km/h (0 Bft)
03.12.2013 09:14 -1,1 C -1,7 C 94 % 1029,3 hPa 0,0 l/m 0 min 0 min 0,0 UV-I 37 W/m 0,0 km/h (0 Bft)
03.12.2013 09:16 -1,1 C -1,7 C 94 % 1029,2 hPa 0,0 l/m 0 min 0 min 0,0 UV-I 39 W/m 0,0 km/h (0 Bft)
03.12.2013 09:18 -1,0 C -1,7 C 95 % 1029,3 hPa 0,0 l/m 0 min 0 min 0,0 UV-I 40 W/m 0,0 km/h (0 Bft)
03.12.2013 09:20 -0,9 C -1,7 C 94 % 1029,3 hPa 0,0 l/m 0 min 0 min 0,0 UV-I 42 W/m 0,0 km/h (0 Bft)
03.12.2013 09:22 -0,8 C -1,7 C 95 % 1029,3 hPa 0,0 l/m 0 min 0 min 0,0 UV-I 47 W/m 0,0 km/h (0 Bft)
03.12.2013 09:24 -0,8 C -1,1 C 95 % 1029,2 hPa 0,0 l/m 0 min 0 min 0,0 UV-I 51 W/m 0,0 km/h (0 Bft)
03.12.2013 09:26 -0,7 C -1,1 C 95 % 1029,2 hPa 0,0 l/m 0 min 0 min 0,0 UV-I 51 W/m 0,0 km/h (0 Bft)
03.12.2013 09:28 -0,7 C -1,1 C 95 % 1029,2 hPa 0,0 l/m 0 min 0 min 0,0 UV-I 56 W/m 0,0 km/h (0 Bft)
03.12.2013 09:30 -0,6 C -1,1 C 95 % 1029,3 hPa 0,0 l/m 0 min 0 min 0,0 UV-I 69 W/m 0,0 km/h (0 Bft)
03.12.2013 09:32 -0,6 C -1,1 C 95 % 1029,3 hPa 0,0 l/m 0 min 0 min 0,0 UV-I 65 W/m 0,0 km/h (0 Bft)
03.12.2013 09:34 -0,5 C -0,6 C 95 % 1029,3 hPa 0,0 l/m 2 min 0 min 0,0 UV-I 76 W/m 0,0 km/h (0 Bft)
03.12.2013 09:36 -0,4 C -0,6 C 95 % 1029,3 hPa 0,0 l/m 2 min 0 min 0,0 UV-I 84 W/m 0,0 km/h (0 Bft)
03.12.2013 09:38 -0,3 C -0,6 C 95 % 1029,3 hPa 0,0 l/m 2 min 0 min 0,0 UV-I 86 W/m 2,6 km/h (1 Bft)
03.12.2013 09:40 -0,3 C -0,6 C 95 % 1029,4 hPa 0,0 l/m 2 min 0 min 0,0 UV-I 93 W/m 0,0 km/h (0 Bft)
03.12.2013 09:42 -0,2 C -0,6 C 95 % 1029,3 hPa 0,0 l/m 2 min 0 min 0,0 UV-I 91 W/m 0,0 km/h (0 Bft)
03.12.2013 09:44 -0,1 C -0,6 C 96 % 1029,3 hPa 0,0 l/m 2 min 0 min 0,0 UV-I 93 W/m 0,0 km/h (0 Bft)
03.12.2013 09:46 -0,1 C -0,6 C 95 % 1029,3 hPa 0,0 l/m 0 min 0 min 0,0 UV-I 83 W/m 0,0 km/h (0 Bft)
03.12.2013 09:48 0,0 C -0,6 C 95 % 1029,3 hPa 0,0 l/m 0 min 0 min 0,0 UV-I 74 W/m 0,0 km/h (0 Bft)
03.12.2013 09:50 0,1 C -0,6 C 96 % 1029,3 hPa 0,0 l/m 0 min 0 min 0,0 UV-I 74 W/m 0,0 km/h (0 Bft)
03.12.2013 09:52 0,1 C -0,6 C 96 % 1029,3 hPa 0,0 l/m 0 min 0 min 0,0 UV-I 74 W/m 0,0 km/h (0 Bft)
03.12.2013 09:54 0,2 C -0,6 C 96 % 1029,3 hPa 0,0 l/m 0 min 0 min 0,0 UV-I 88 W/m 0,0 km/h (0 Bft)
03.12.2013 09:56 0,2 C -0,6 C 96 % 1029,3 hPa 0,0 l/m 0 min 0 min 0,0 UV-I 88 W/m 0,0 km/h (0 Bft)
03.12.2013 09:58 0,3 C 0,0 C 96 % 1029,3 hPa 0,0 l/m 0 min 0 min 0,0 UV-I 84 W/m 2,6 km/h (1 Bft)
03.12.2013 10:00 0,3 C 0,0 C 96 % 1029,3 hPa 0,0 l/m 0 min 0 min 0,0 UV-I 88 W/m 0,0 km/h (0 Bft)
03.12.2013 10:02 0,4 C 0,0 C 96 % 1029,3 hPa 0,0 l/m 0 min 0 min 0,0 UV-I 90 W/m 7,7 km/h (2 Bft)
03.12.2013 10:04 0,4 C 0,0 C 96 % 1029,3 hPa 0,0 l/m 2 min 0 min 0,0 UV-I 105 W/m 0,0 km/h (0 Bft)
03.12.2013 10:06 0,5 C 0,0 C 96 % 1029,3 hPa 0,0 l/m 0 min 0 min 0,0 UV-I 102 W/m 0,0 km/h (0 Bft)
03.12.2013 10:08 0,5 C 0,0 C 96 % 1029,4 hPa 0,0 l/m 2 min 0 min 0,0 UV-I 107 W/m 0,0 km/h (0 Bft)
03.12.2013 10:10 0,5 C 0,0 C 96 % 1029,4 hPa 0,0 l/m 0 min 0 min 0,0 UV-I 105 W/m 2,6 km/h (1 Bft)
03.12.2013 10:12 0,5 C 0,0 C 96 % 1029,4 hPa 0,0 l/m 0 min 0 min 0,0 UV-I 97 W/m 0,0 km/h (0 Bft)
03.12.2013 10:14 0,6 C 0,0 C 96 % 1029,3 hPa 0,0 l/m 0 min 0 min 0,0 UV-I 102 W/m 0,0 km/h (0 Bft)
03.12.2013 10:16 0,7 C 0,0 C 96 % 1029,3 hPa 0,0 l/m 0 min 0 min 0,0 UV-I 104 W/m 5,1 km/h (1 Bft)
03.12.2013 10:18 0,7 C 0,0 C 96 % 1029,3 hPa 0,0 l/m 0 min 0 min 0,0 UV-I 91 W/m 5,1 km/h (1 Bft)
03.12.2013 10:20 0,7 C 0,0 C 96 % 1029,3 hPa 0,0 l/m 0 min 0 min 0,0 UV-I 88 W/m 2,6 km/h (1 Bft)
03.12.2013 10:22 0,8 C 0,6 C 96 % 1029,4 hPa 0,0 l/m 0 min 0 min 0,0 UV-I 95 W/m 0,0 km/h (0 Bft)
03.12.2013 10:24 0,8 C 0,6 C 96 % 1029,4 hPa 0,0 l/m 0 min 0 min 0,0 UV-I 98 W/m 2,6 km/h (1 Bft)
03.12.2013 10:26 0,9 C 0,6 C 96 % 1029,4 hPa 0,0 l/m 0 min 0 min 0,0 UV-I 107 W/m 7,7 km/h (2 Bft)
03.12.2013 10:28 0,9 C 0,6 C 96 % 1029,3 hPa 0,0 l/m 2 min 0 min 0,0 UV-I 123 W/m 0,0 km/h (0 Bft)
03.12.2013 10:30 0,9 C 0,6 C 96 % 1029,3 hPa 0,0 l/m 2 min 0 min 0,0 UV-I 130 W/m 0,0 km/h (0 Bft)
03.12.2013 10:32 1,0 C 0,6 C 96 % 1029,3 hPa 0,0 l/m 2 min 0 min 0,0 UV-I 146 W/m 7,7 km/h (2 Bft)
03.12.2013 10:34 1,1 C 0,6 C 96 % 1029,3 hPa 0,0 l/m 2 min 0 min 0,0 UV-I 156 W/m 5,1 km/h (1 Bft)
03.12.2013 10:36 1,2 C 0,6 C 96 % 1029,4 hPa 0,0 l/m 2 min 0 min 0,0 UV-I 156 W/m 0,0 km/h (0 Bft)
03.12.2013 10:38 1,4 C 0,6 C 96 % 1029,3 hPa 0,0 l/m 2 min 0 min 0,0 UV-I 162 W/m 5,1 km/h (1 Bft)
03.12.2013 10:40 1,6 C 0,6 C 96 % 1029,3 hPa 0,0 l/m 2 min 0 min 0,0 UV-I 144 W/m 12,9 km/h (3 Bft)
03.12.2013 10:42 1,7 C 1,1 C 97 % 1029,4 hPa 0,0 l/m 0 min 0 min 0,0 UV-I 113 W/m 18,0 km/h (3 Bft)
03.12.2013 10:44 1,7 C 1,1 C 96 % 1029,3 hPa 0,0 l/m 0 min 0 min 0,0 UV-I 98 W/m 15,4 km/h (3 Bft)
03.12.2013 10:46 1,8 C 1,1 C 96 % 1029,4 hPa 0,0 l/m 0 min 0 min 0,0 UV-I 105 W/m 0,0 km/h (0 Bft)
03.12.2013 10:48 1,9 C 1,1 C 96 % 1029,3 hPa 0,0 l/m 0 min 0 min 0,0 UV-I 113 W/m 10,3 km/h (2 Bft)
03.12.2013 10:50 1,9 C 1,1 C 96 % 1029,3 hPa 0,0 l/m 0 min 0 min 0,0 UV-I 97 W/m 2,6 km/h (1 Bft)
03.12.2013 10:52 2,0 C 1,1 C 96 % 1029,3 hPa 0,0 l/m 0 min 0 min 0,0 UV-I 88 W/m 7,7 km/h (2 Bft)
03.12.2013 10:54 2,0 C 1,1 C 95 % 1029,3 hPa 0,2 l/m 0 min 0 min 0,0 UV-I 91 W/m 7,7 km/h (2 Bft)
03.12.2013 10:56 2,1 C 1,1 C 95 % 1029,3 hPa 0,0 l/m 0 min 0 min 0,0 UV-I 120 W/m 7,7 km/h (2 Bft)
03.12.2013 10:58 2,1 C 1,1 C 95 % 1029,3 hPa 0,0 l/m 0 min 0 min 0,0 UV-I 130 W/m 10,3 km/h (2 Bft)
03.12.2013 11:00 2,1 C 1,1 C 94 % 1029,3 hPa 0,0 l/m 2 min 0 min 0,0 UV-I 156 W/m 7,7 km/h (2 Bft)
03.12.2013 11:02 2,2 C 1,1 C 94 % 1029,4 hPa 0,0 l/m 2 min 0 min 0,0 UV-I 181 W/m 2,6 km/h (1 Bft)
03.12.2013 11:04 2,3 C 1,1 C 94 % 1029,3 hPa 0,0 l/m 2 min 0 min 0,0 UV-I 185 W/m 2,6 km/h (1 Bft)
03.12.2013 11:06 2,4 C 1,1 C 93 % 1029,2 hPa 0,0 l/m 2 min 0 min 0,0 UV-I 202 W/m 2,6 km/h (1 Bft)
03.12.2013 11:08 2,6 C 1,1 C 93 % 1029,3 hPa 0,0 l/m 2 min 0 min 0,0 UV-I 213 W/m 5,1 km/h (1 Bft)
03.12.2013 11:10 2,7 C 1,7 C 93 % 1029,2 hPa 0,0 l/m 2 min 0 min 0,0 UV-I 218 W/m 7,7 km/h (2 Bft)
03.12.2013 11:12 2,8 C 1,7 C 92 % 1029,2 hPa 0,0 l/m 2 min 0 min 0,0 UV-I 221 W/m 0,0 km/h (0 Bft)
03.12.2013 11:14 2,9 C 1,7 C 92 % 1029,2 hPa 0,0 l/m 2 min 0 min 0,0 UV-I 211 W/m 7,7 km/h (2 Bft)
03.12.2013 11:16 3,0 C 1,7 C 91 % 1029,3 hPa 0,0 l/m 2 min 0 min 0,0 UV-I 218 W/m 10,3 km/h (2 Bft)
03.12.2013 11:18 3,0 C 1,7 C 91 % 1029,3 hPa 0,0 l/m 2 min 0 min 0,0 UV-I 230 W/m 10,3 km/h (2 Bft)
03.12.2013 11:20 3,1 C 1,7 C 90 % 1029,3 hPa 0,0 l/m 2 min 0 min 0,0 UV-I 236 W/m 10,3 km/h (2 Bft)
03.12.2013 11:22 3,1 C 1,7 C 90 % 1029,3 hPa 0,0 l/m 2 min 0 min 0,0 UV-I 229 W/m 7,7 km/h (2 Bft)
03.12.2013 11:24 3,2 C 1,7 C 90 % 1029,2 hPa 0,0 l/m 2 min 0 min 0,0 UV-I 213 W/m 12,9 km/h (3 Bft)
03.12.2013 11:26 3,2 C 1,7 C 90 % 1029,2 hPa 0,0 l/m 2 min 0 min 0,0 UV-I 227 W/m 7,7 km/h (2 Bft)
03.12.2013 11:28 3,2 C 1,7 C 89 % 1029,1 hPa 0,0 l/m 2 min 0 min 0,0 UV-I 213 W/m 7,7 km/h (2 Bft)
03.12.2013 11:30 3,3 C 2,2 C 89 % 1029,0 hPa 0,0 l/m 2 min 0 min 0,0 UV-I 209 W/m 7,7 km/h (2 Bft)
03.12.2013 11:32 3,4 C 2,2 C 89 % 1029,1 hPa 0,0 l/m 2 min 0 min 0,0 UV-I 190 W/m 5,1 km/h (1 Bft)
03.12.2013 11:34 3,4 C 2,2 C 89 % 1029,0 hPa 0,0 l/m 2 min 0 min 0,0 UV-I 199 W/m 7,7 km/h (2 Bft)
03.12.2013 11:36 3,4 C 2,2 C 89 % 1029,0 hPa 0,0 l/m 2 min 0 min 0,0 UV-I 176 W/m 7,7 km/h (2 Bft)
03.12.2013 11:38 3,4 C 2,2 C 89 % 1029,0 hPa 0,0 l/m 2 min 0 min 0,0 UV-I 199 W/m 10,3 km/h (2 Bft)
03.12.2013 11:40 3,5 C 2,2 C 88 % 1029,0 hPa 0,0 l/m 2 min 0 min 0,0 UV-I 206 W/m 7,7 km/h (2 Bft)
03.12.2013 11:42 3,5 C 2,2 C 88 % 1028,9 hPa 0,0 l/m 2 min 0 min 0,0 UV-I 229 W/m 7,7 km/h (2 Bft)
03.12.2013 11:44 3,6 C 2,2 C 88 % 1028,9 hPa 0,0 l/m 2 min 0 min 0,0 UV-I 225 W/m 7,7 km/h (2 Bft)
03.12.2013 11:46 3,6 C 2,2 C 88 % 1028,9 hPa 0,0 l/m 2 min 0 min 0,0 UV-I 200 W/m 7,7 km/h (2 Bft)
03.12.2013 11:48 3,7 C 2,2 C 88 % 1028,9 hPa 0,0 l/m 2 min 0 min 0,0 UV-I 160 W/m 15,4 km/h (3 Bft)
03.12.2013 11:50 3,7 C 2,2 C 88 % 1028,8 hPa 0,0 l/m 2 min 0 min 0,0 UV-I 183 W/m 15,4 km/h (3 Bft)
03.12.2013 11:52 3,7 C 2,2 C 88 % 1028,7 hPa 0,0 l/m 0 min 0 min 0,0 UV-I 155 W/m 7,7 km/h (2 Bft)
03.12.2013 11:54 3,6 C 2,2 C 87 % 1028,7 hPa 0,0 l/m 2 min 0 min 0,0 UV-I 160 W/m 10,3 km/h (2 Bft)
03.12.2013 11:56 3,6 C 2,2 C 87 % 1028,8 hPa 0,0 l/m 2 min 0 min 0,0 UV-I 188 W/m 7,7 km/h (2 Bft)
03.12.2013 11:58 3,6 C 2,2 C 88 % 1028,7 hPa 0,0 l/m 2 min 0 min 0,0 UV-I 218 W/m 5,1 km/h (1 Bft)
03.12.2013 12:00 3,8 C 2,2 C 88 % 1028,8 hPa 0,0 l/m 2 min 0 min 0,0 UV-I 250 W/m 0,0 km/h (0 Bft)
03.12.2013 12:02 3,9 C 2,2 C 88 % 1028,7 hPa 0,0 l/m 2 min 0 min 0,0 UV-I 244 W/m 7,7 km/h (2 Bft)
03.12.2013 12:04 4,0 C 2,8 C 87 % 1028,7 hPa 0,0 l/m 2 min 0 min 0,0 UV-I 241 W/m 7,7 km/h (2 Bft)
03.12.2013 12:06 4,1 C 2,8 C 87 % 1028,7 hPa 0,0 l/m 2 min 0 min 0,0 UV-I 178 W/m 12,9 km/h (3 Bft)
03.12.2013 12:08 4,1 C 2,8 C 87 % 1028,5 hPa 0,0 l/m 2 min 0 min 0,0 UV-I 179 W/m 12,9 km/h (3 Bft)
03.12.2013 12:10 4,1 C 2,8 C 87 % 1028,5 hPa 0,0 l/m 0 min 0 min 0,0 UV-I 125 W/m 2,6 km/h (1 Bft)
03.12.2013 12:12 4,1 C 2,8 C 87 % 1028,5 hPa 0,0 l/m 2 min 0 min 0,0 UV-I 213 W/m 7,7 km/h (2 Bft)
03.12.2013 12:14 4,0 C 2,8 C 87 % 1028,5 hPa 0,0 l/m 2 min 0 min 0,0 UV-I 225 W/m 7,7 km/h (2 Bft)
03.12.2013 12:16 4,1 C 2,8 C 87 % 1028,5 hPa 0,0 l/m 2 min 0 min 0,0 UV-I 197 W/m 0,0 km/h (0 Bft)
03.12.2013 12:18 4,1 C 2,8 C 87 % 1028,5 hPa 0,0 l/m 2 min 0 min 0,0 UV-I 206 W/m 2,6 km/h (1 Bft)
03.12.2013 12:20 4,1 C 2,8 C 87 % 1028,4 hPa 0,0 l/m 2 min 0 min 0,0 UV-I 216 W/m 7,7 km/h (2 Bft)
03.12.2013 12:22 4,1 C 2,8 C 87 % 1028,5 hPa 0,0 l/m 2 min 0 min 0,0 UV-I 172 W/m 5,1 km/h (1 Bft)
03.12.2013 12:24 4,2 C 2,8 C 87 % 1028,5 hPa 0,0 l/m 2 min 0 min 0,0 UV-I 190 W/m 7,7 km/h (2 Bft)
03.12.2013 12:26 4,2 C 2,8 C 87 % 1028,6 hPa 0,0 l/m 2 min 0 min 0,0 UV-I 229 W/m 0,0 km/h (0 Bft)
03.12.2013 12:28 4,2 C 2,8 C 87 % 1028,6 hPa 0,0 l/m 2 min 0 min 0,0 UV-I 206 W/m 0,0 km/h (0 Bft)
03.12.2013 12:30 4,3 C 2,8 C 87 % 1028,5 hPa 0,0 l/m 2 min 0 min 0,0 UV-I 241 W/m 0,0 km/h (0 Bft)
03.12.2013 12:32 4,4 C 2,8 C 87 % 1028,5 hPa 0,0 l/m 2 min 0 min 0,0 UV-I 243 W/m 0,0 km/h (0 Bft)
03.12.2013 12:34 4,5 C 2,8 C 86 % 1028,5 hPa 0,0 l/m 2 min 0 min 0,0 UV-I 200 W/m 7,7 km/h (2 Bft)
03.12.2013 12:36 4,6 C 2,8 C 86 % 1028,5 hPa 0,0 l/m 2 min 0 min 0,0 UV-I 209 W/m 0,0 km/h (0 Bft)
03.12.2013 12:38 4,7 C 2,8 C 86 % 1028,5 hPa 0,0 l/m 2 min 0 min 0,0 UV-I 211 W/m 10,3 km/h (2 Bft)
03.12.2013 12:40 4,7 C 3,3 C 86 % 1028,5 hPa 0,0 l/m 2 min 0 min 0,0 UV-I 207 W/m 2,6 km/h (1 Bft)
03.12.2013 12:42 4,7 C 3,3 C 86 % 1028,5 hPa 0,0 l/m 2 min 0 min 0,0 UV-I 207 W/m 7,7 km/h (2 Bft)
03.12.2013 12:44 4,7 C 3,3 C 86 % 1028,5 hPa 0,0 l/m 2 min 0 min 0,0 UV-I 186 W/m 0,0 km/h (0 Bft)
03.12.2013 12:46 4,7 C 3,3 C 85 % 1028,5 hPa 0,0 l/m 2 min 0 min 0,0 UV-I 214 W/m 0,0 km/h (0 Bft)
03.12.2013 12:48 4,8 C 3,3 C 85 % 1028,5 hPa 0,0 l/m 2 min 0 min 0,0 UV-I 244 W/m 7,7 km/h (2 Bft)
03.12.2013 12:50 4,9 C 3,3 C 86 % 1028,4 hPa 0,0 l/m 2 min 0 min 0,0 UV-I 241 W/m 2,6 km/h (1 Bft)
03.12.2013 12:52 5,0 C 3,3 C 85 % 1028,4 hPa 0,0 l/m 2 min 0 min 0,0 UV-I 237 W/m 0,0 km/h (0 Bft)
03.12.2013 12:54 5,1 C 3,3 C 85 % 1028,4 hPa 0,0 l/m 2 min 0 min 0,0 UV-I 241 W/m 0,0 km/h (0 Bft)
03.12.2013 12:56 5,2 C 3,3 C 85 % 1028,4 hPa 0,0 l/m 2 min 0 min 0,0 UV-I 236 W/m 0,0 km/h (0 Bft)
03.12.2013 12:58 5,2 C 3,3 C 85 % 1028,3 hPa 0,0 l/m 2 min 0 min 0,0 UV-I 239 W/m 0,0 km/h (0 Bft)
03.12.2013 13:00 5,2 C 3,9 C 85 % 1028,2 hPa 0,0 l/m 2 min 0 min 0,0 UV-I 230 W/m 0,0 km/h (0 Bft)
03.12.2013 13:02 5,4 C 3,9 C 85 % 1028,2 hPa 0,0 l/m 2 min 0 min 0,0 UV-I 241 W/m 0,0 km/h (0 Bft)
03.12.2013 13:04 5,4 C 3,9 C 84 % 1028,1 hPa 0,0 l/m 2 min 0 min 0,0 UV-I 232 W/m 10,3 km/h (2 Bft)
03.12.2013 13:06 5,4 C 3,9 C 84 % 1028,1 hPa 0,0 l/m 2 min 0 min 0,0 UV-I 221 W/m 7,7 km/h (2 Bft)
03.12.2013 13:08 5,3 C 3,9 C 83 % 1028,1 hPa 0,0 l/m 2 min 0 min 0,0 UV-I 200 W/m 0,0 km/h (0 Bft)
03.12.2013 13:10 5,3 C 3,9 C 84 % 1028,2 hPa 0,0 l/m 2 min 0 min 0,0 UV-I 227 W/m 0,0 km/h (0 Bft)
03.12.2013 13:12 5,3 C 3,9 C 84 % 1028,1 hPa 0,0 l/m 2 min 0 min 0,0 UV-I 237 W/m 0,0 km/h (0 Bft)
03.12.2013 13:14 5,3 C 3,9 C 84 % 1028,1 hPa 0,0 l/m 2 min 0 min 0,0 UV-I 229 W/m 0,0 km/h (0 Bft)
03.12.2013 13:16 5,3 C 3,9 C 84 % 1028,1 hPa 0,0 l/m 2 min 0 min 0,0 UV-I 207 W/m 0,0 km/h (0 Bft)
03.12.2013 13:18 5,3 C 3,9 C 84 % 1028,2 hPa 0,0 l/m 2 min 0 min 0,0 UV-I 227 W/m 5,1 km/h (1 Bft)
03.12.2013 13:20 5,3 C 3,9 C 83 % 1028,2 hPa 0,0 l/m 2 min 0 min 0,0 UV-I 230 W/m 0,0 km/h (0 Bft)
03.12.2013 13:22 5,3 C 3,9 C 83 % 1028,2 hPa 0,0 l/m 2 min 0 min 0,0 UV-I 214 W/m 0,0 km/h (0 Bft)
03.12.2013 13:24 5,3 C 3,9 C 83 % 1028,1 hPa 0,0 l/m 2 min 0 min 0,0 UV-I 213 W/m 0,0 km/h (0 Bft)
03.12.2013 13:26 5,3 C 3,9 C 83 % 1028,1 hPa 0,0 l/m 2 min 0 min 0,0 UV-I 211 W/m 0,0 km/h (0 Bft)
03.12.2013 13:28 5,4 C 3,9 C 84 % 1028,1 hPa 0,0 l/m 2 min 0 min 0,0 UV-I 213 W/m 0,0 km/h (0 Bft)
03.12.2013 13:30 5,4 C 3,9 C 84 % 1028,1 hPa 0,0 l/m 2 min 0 min 0,0 UV-I 214 W/m 0,0 km/h (0 Bft)
03.12.2013 13:32 5,3 C 3,9 C 84 % 1028,1 hPa 0,0 l/m 2 min 0 min 0,0 UV-I 209 W/m 0,0 km/h (0 Bft)
03.12.2013 13:34 5,3 C 3,9 C 84 % 1028,1 hPa 0,0 l/m 2 min 0 min 0,0 UV-I 209 W/m 2,6 km/h (1 Bft)
03.12.2013 13:36 5,3 C 4,4 C 83 % 1028,0 hPa 0,0 l/m 2 min 0 min 0,0 UV-I 214 W/m 0,0 km/h (0 Bft)
03.12.2013 13:38 5,4 C 4,4 C 83 % 1028,0 hPa 0,0 l/m 2 min 0 min 0,0 UV-I 211 W/m 0,0 km/h (0 Bft)
03.12.2013 13:40 5,4 C 4,4 C 83 % 1028,0 hPa 0,0 l/m 2 min 0 min 0,0 UV-I 216 W/m 0,0 km/h (0 Bft)
03.12.2013 13:42 5,4 C 4,4 C 83 % 1028,0 hPa 0,0 l/m 2 min 0 min 0,0 UV-I 216 W/m 0,0 km/h (0 Bft)
03.12.2013 13:44 5,5 C 4,4 C 83 % 1028,0 hPa 0,0 l/m 2 min 0 min 0,0 UV-I 200 W/m 0,0 km/h (0 Bft)
03.12.2013 13:46 5,5 C 4,4 C 83 % 1028,0 hPa 0,0 l/m 2 min 0 min 0,0 UV-I 190 W/m 0,0 km/h (0 Bft)
03.12.2013 13:48 5,4 C 3,9 C 83 % 1028,0 hPa 0,0 l/m 2 min 0 min 0,0 UV-I 186 W/m 0,0 km/h (0 Bft)
03.12.2013 13:50 5,4 C 3,9 C 84 % 1027,9 hPa 0,0 l/m 2 min 0 min 0,0 UV-I 190 W/m 0,0 km/h (0 Bft)
03.12.2013 13:52 5,5 C 4,4 C 84 % 1027,9 hPa 0,0 l/m 2 min 0 min 0,0 UV-I 192 W/m 0,0 km/h (0 Bft)
03.12.2013 13:54 5,5 C 4,4 C 83 % 1027,9 hPa 0,0 l/m 2 min 0 min 0,0 UV-I 176 W/m 0,0 km/h (0 Bft)
03.12.2013 13:56 5,6 C 4,4 C 83 % 1028,0 hPa 0,0 l/m 2 min 0 min 0,0 UV-I 176 W/m 0,0 km/h (0 Bft)
03.12.2013 13:58 5,6 C 4,4 C 83 % 1027,9 hPa 0,0 l/m 2 min 0 min 0,0 UV-I 181 W/m 0,0 km/h (0 Bft)
03.12.2013 14:00 5,6 C 4,4 C 83 % 1028,0 hPa 0,0 l/m 2 min 0 min 0,0 UV-I 185 W/m 10,3 km/h (2 Bft)
03.12.2013 14:02 5,5 C 4,4 C 83 % 1028,0 hPa 0,0 l/m 2 min 0 min 0,0 UV-I 172 W/m 0,0 km/h (0 Bft)
03.12.2013 14:04 5,4 C 4,4 C 83 % 1028,0 hPa 0,0 l/m 2 min 0 min 0,0 UV-I 174 W/m 0,0 km/h (0 Bft)
03.12.2013 14:06 5,4 C 4,4 C 83 % 1027,9 hPa 0,0 l/m 2 min 0 min 0,0 UV-I 158 W/m 0,0 km/h (0 Bft)
03.12.2013 14:08 5,5 C 4,4 C 84 % 1028,0 hPa 0,0 l/m 2 min 0 min 0,0 UV-I 162 W/m 0,0 km/h (0 Bft)
03.12.2013 14:10 5,4 C 4,4 C 84 % 1028,0 hPa 0,0 l/m 2 min 0 min 0,0 UV-I 160 W/m 0,0 km/h (0 Bft)
03.12.2013 14:12 5,4 C 4,4 C 84 % 1027,9 hPa 0,0 l/m 2 min 0 min 0,0 UV-I 165 W/m 0,0 km/h (0 Bft)
03.12.2013 14:14 5,4 C 3,9 C 84 % 1027,9 hPa 0,0 l/m 2 min 0 min 0,0 UV-I 160 W/m 0,0 km/h (0 Bft)
03.12.2013 14:16 5,4 C 3,9 C 84 % 1027,9 hPa 0,0 l/m 2 min 0 min 0,0 UV-I 146 W/m 0,0 km/h (0 Bft)
03.12.2013 14:18 5,3 C 3,9 C 84 % 1027,9 hPa 0,0 l/m 2 min 0 min 0,0 UV-I 139 W/m 0,0 km/h (0 Bft)
03.12.2013 14:20 5,3 C 3,9 C 84 % 1027,9 hPa 0,0 l/m 2 min 0 min 0,0 UV-I 144 W/m 0,0 km/h (0 Bft)
03.12.2013 14:22 5,3 C 3,9 C 84 % 1027,9 hPa 0,0 l/m 2 min 0 min 0,0 UV-I 132 W/m 0,0 km/h (0 Bft)
03.12.2013 14:24 5,3 C 3,9 C 84 % 1027,9 hPa 0,0 l/m 2 min 0 min 0,0 UV-I 128 W/m 0,0 km/h (0 Bft)
03.12.2013 14:26 5,2 C 3,9 C 84 % 1027,8 hPa 0,0 l/m 2 min 0 min 0,0 UV-I 132 W/m 0,0 km/h (0 Bft)
03.12.2013 14:28 5,2 C 3,9 C 84 % 1027,9 hPa 0,0 l/m 2 min 0 min 0,0 UV-I 132 W/m 0,0 km/h (0 Bft)
03.12.2013 14:30 5,2 C 3,9 C 84 % 1027,8 hPa 0,0 l/m 2 min 0 min 0,0 UV-I 130 W/m 0,0 km/h (0 Bft)
03.12.2013 14:32 5,2 C 3,9 C 85 % 1027,8 hPa 0,0 l/m 2 min 0 min 0,0 UV-I 125 W/m 0,0 km/h (0 Bft)
03.12.2013 14:34 5,2 C 3,9 C 85 % 1027,8 hPa 0,0 l/m 2 min 0 min 0,0 UV-I 130 W/m 0,0 km/h (0 Bft)
03.12.2013 14:36 5,2 C 3,9 C 84 % 1027,8 hPa 0,0 l/m 2 min 0 min 0,0 UV-I 127 W/m 0,0 km/h (0 Bft)
03.12.2013 14:38 5,2 C 3,9 C 85 % 1027,7 hPa 0,0 l/m 2 min 0 min 0,0 UV-I 121 W/m 0,0 km/h (0 Bft)
03.12.2013 14:40 5,2 C 3,9 C 84 % 1027,6 hPa 0,0 l/m 2 min 0 min 0,0 UV-I 113 W/m 0,0 km/h (0 Bft)
03.12.2013 14:42 5,2 C 3,9 C 84 % 1027,6 hPa 0,0 l/m 2 min 0 min 0,0 UV-I 111 W/m 7,7 km/h (2 Bft)
03.12.2013 14:44 5,2 C 3,9 C 84 % 1027,5 hPa 0,0 l/m 2 min 0 min 0,0 UV-I 102 W/m 2,6 km/h (1 Bft)
03.12.2013 14:46 5,2 C 3,9 C 84 % 1027,5 hPa 0,0 l/m 0 min 0 min 0,0 UV-I 98 W/m 0,0 km/h (0 Bft)
03.12.2013 14:48 5,2 C 3,9 C 85 % 1027,6 hPa 0,0 l/m 2 min 0 min 0,0 UV-I 100 W/m 0,0 km/h (0 Bft)
03.12.2013 14:50 5,2 C 3,9 C 85 % 1027,7 hPa 0,0 l/m 2 min 0 min 0,0 UV-I 104 W/m 5,1 km/h (1 Bft)
03.12.2013 14:52 5,2 C 3,9 C 85 % 1027,6 hPa 0,0 l/m 2 min 0 min 0,0 UV-I 100 W/m 5,1 km/h (1 Bft)
03.12.2013 14:54 5,2 C 3,9 C 85 % 1027,7 hPa 0,0 l/m 0 min 0 min 0,0 UV-I 86 W/m 0,0 km/h (0 Bft)
03.12.2013 14:56 5,2 C 3,9 C 84 % 1027,7 hPa 0,0 l/m 0 min 0 min 0,0 UV-I 65 W/m 0,0 km/h (0 Bft)
03.12.2013 14:58 5,2 C 3,9 C 85 % 1027,5 hPa 0,0 l/m 0 min 0 min 0,0 UV-I 63 W/m 5,1 km/h (1 Bft)
03.12.2013 15:00 5,2 C 3,9 C 85 % 1027,5 hPa 0,0 l/m 0 min 0 min 0,0 UV-I 62 W/m 7,7 km/h (2 Bft)
03.12.2013 15:02 5,2 C 3,9 C 85 % 1027,7 hPa 0,0 l/m 0 min 0 min 0,0 UV-I 60 W/m 0,0 km/h (0 Bft)
03.12.2013 15:04 5,2 C 3,9 C 85 % 1027,6 hPa 0,0 l/m 0 min 0 min 0,0 UV-I 58 W/m 0,0 km/h (0 Bft)
03.12.2013 15:06 5,1 C 3,3 C 85 % 1027,7 hPa 0,0 l/m 0 min 0 min 0,0 UV-I 56 W/m 0,0 km/h (0 Bft)
03.12.2013 15:08 5,1 C 3,3 C 85 % 1027,7 hPa 0,0 l/m 0 min 0 min 0,0 UV-I 54 W/m 2,6 km/h (1 Bft)
03.12.2013 15:10 5,1 C 3,3 C 85 % 1027,7 hPa 0,0 l/m 0 min 0 min 0,0 UV-I 53 W/m 0,0 km/h (0 Bft)
03.12.2013 15:12 5,1 C 3,3 C 85 % 1027,7 hPa 0,0 l/m 0 min 0 min 0,0 UV-I 51 W/m 0,0 km/h (0 Bft)
03.12.2013 15:14 5,1 C 3,3 C 85 % 1027,7 hPa 0,0 l/m 0 min 0 min 0,0 UV-I 51 W/m 0,0 km/h (0 Bft)
03.12.2013 15:16 5,1 C 3,3 C 85 % 1027,7 hPa 0,0 l/m 0 min 0 min 0,0 UV-I 49 W/m 0,0 km/h (0 Bft)
03.12.2013 15:18 5,0 C 3,3 C 85 % 1027,8 hPa 0,0 l/m 0 min 0 min 0,0 UV-I 47 W/m 0,0 km/h (0 Bft)
03.12.2013 15:20 5,0 C 3,3 C 85 % 1027,7 hPa 0,0 l/m 0 min 0 min 0,0 UV-I 46 W/m 0,0 km/h (0 Bft)
03.12.2013 15:22 4,9 C 3,3 C 85 % 1027,7 hPa 0,0 l/m 0 min 0 min 0,0 UV-I 42 W/m 0,0 km/h (0 Bft)
03.12.2013 15:24 4,9 C 3,3 C 86 % 1027,7 hPa 0,0 l/m 0 min 0 min 0,0 UV-I 42 W/m 0,0 km/h (0 Bft)
03.12.2013 15:26 4,9 C 3,3 C 86 % 1027,7 hPa 0,0 l/m 0 min 0 min 0,0 UV-I 40 W/m 0,0 km/h (0 Bft)
03.12.2013 15:28 4,9 C 3,3 C 86 % 1027,7 hPa 0,0 l/m 0 min 0 min 0,0 UV-I 40 W/m 0,0 km/h (0 Bft)
03.12.2013 15:30 4,9 C 3,3 C 86 % 1027,7 hPa 0,0 l/m 0 min 0 min 0,0 UV-I 39 W/m 0,0 km/h (0 Bft)
03.12.2013 15:32 4,9 C 3,3 C 86 % 1027,5 hPa 0,0 l/m 0 min 0 min 0,0 UV-I 37 W/m 0,0 km/h (0 Bft)
03.12.2013 15:34 4,8 C 2,8 C 86 % 1027,5 hPa 0,0 l/m 0 min 0 min 0,0 UV-I 37 W/m 0,0 km/h (0 Bft)
03.12.2013 15:36 4,8 C 2,8 C 86 % 1027,5 hPa 0,0 l/m 0 min 0 min 0,0 UV-I 35 W/m 0,0 km/h (0 Bft)
03.12.2013 15:38 4,7 C 2,8 C 86 % 1027,6 hPa 0,0 l/m 0 min 0 min 0,0 UV-I 35 W/m 0,0 km/h (0 Bft)
03.12.2013 15:40 4,7 C 2,8 C 86 % 1027,6 hPa 0,0 l/m 0 min 0 min 0,0 UV-I 33 W/m 0,0 km/h (0 Bft)
03.12.2013 15:42 4,7 C 2,8 C 87 % 1027,7 hPa 0,0 l/m 0 min 0 min 0,0 UV-I 30 W/m 0,0 km/h (0 Bft)
03.12.2013 15:44 4,7 C 2,8 C 87 % 1027,7 hPa 0,0 l/m 0 min 0 min 0,0 UV-I 28 W/m 0,0 km/h (0 Bft)
03.12.2013 15:46 4,7 C 2,8 C 87 % 1027,7 hPa 0,0 l/m 0 min 0 min 0,0 UV-I 26 W/m 0,0 km/h (0 Bft)
03.12.2013 15:48 4,6 C 2,8 C 87 % 1027,7 hPa 0,0 l/m 0 min 0 min 0,0 UV-I 25 W/m 0,0 km/h (0 Bft)
03.12.2013 15:50 4,6 C 2,2 C 87 % 1027,7 hPa 0,0 l/m 0 min 0 min 0,0 UV-I 21 W/m 0,0 km/h (0 Bft)
03.12.2013 15:52 4,5 C 2,2 C 87 % 1027,7 hPa 0,0 l/m 0 min 0 min 0,0 UV-I 21 W/m 0,0 km/h (0 Bft)
03.12.2013 15:54 4,4 C 2,2 C 87 % 1027,7 hPa 0,0 l/m 0 min 0 min 0,0 UV-I 21 W/m 0,0 km/h (0 Bft)
03.12.2013 15:56 4,4 C 2,2 C 87 % 1027,7 hPa 0,0 l/m 0 min 0 min 0,0 UV-I 19 W/m 0,0 km/h (0 Bft)
03.12.2013 15:58 4,4 C 2,2 C 87 % 1027,7 hPa 0,0 l/m 0 min 0 min 0,0 UV-I 19 W/m 0,0 km/h (0 Bft)
03.12.2013 16:00 4,3 C 2,2 C 88 % 1027,7 hPa 0,0 l/m 0 min 0 min 0,0 UV-I 18 W/m 0,0 km/h (0 Bft)
03.12.2013 16:02 4,3 C 2,2 C 88 % 1027,8 hPa 0,0 l/m 0 min 0 min 0,0 UV-I 18 W/m 0,0 km/h (0 Bft)
03.12.2013 16:04 4,2 C 2,2 C 88 % 1027,8 hPa 0,0 l/m 0 min 0 min 0,0 UV-I 18 W/m 0,0 km/h (0 Bft)
03.12.2013 16:06 4,2 C 2,2 C 88 % 1027,8 hPa 0,0 l/m 0 min 0 min 0,0 UV-I 14 W/m 0,0 km/h (0 Bft)
03.12.2013 16:08 4,1 C 1,7 C 88 % 1027,7 hPa 0,0 l/m 0 min 0 min 0,0 UV-I 14 W/m 0,0 km/h (0 Bft)
03.12.2013 16:10 3,9 C 1,7 C 88 % 1027,8 hPa 0,0 l/m 0 min 0 min 0,0 UV-I 12 W/m 0,0 km/h (0 Bft)
03.12.2013 16:12 3,8 C 1,7 C 89 % 1027,8 hPa 0,0 l/m 0 min 0 min 0,0 UV-I 12 W/m 0,0 km/h (0 Bft)
03.12.2013 16:14 3,7 C 1,7 C 89 % 1027,8 hPa 0,0 l/m 0 min 0 min 0,0 UV-I 11 W/m 0,0 km/h (0 Bft)
03.12.2013 16:16 3,5 C 1,7 C 89 % 1027,7 hPa 0,0 l/m 0 min 0 min 0,0 UV-I 11 W/m 0,0 km/h (0 Bft)
03.12.2013 16:18 3,4 C 1,1 C 89 % 1027,7 hPa 0,0 l/m 0 min 0 min 0,0 UV-I 9 W/m 0,0 km/h (0 Bft)
03.12.2013 16:20 3,3 C 1,1 C 90 % 1027,8 hPa 0,0 l/m 0 min 0 min 0,0 UV-I 7 W/m 0,0 km/h (0 Bft)
03.12.2013 16:22 3,3 C 1,1 C 90 % 1027,7 hPa 0,0 l/m 0 min 0 min 0,0 UV-I 7 W/m 0,0 km/h (0 Bft)
03.12.2013 16:24 3,2 C 1,1 C 90 % 1027,8 hPa 0,0 l/m 0 min 0 min 0,0 UV-I 5 W/m 0,0 km/h (0 Bft)
03.12.2013 16:26 3,2 C 1,1 C 90 % 1027,8 hPa 0,0 l/m 0 min 0 min 0,0 UV-I 5 W/m 0,0 km/h (0 Bft)
03.12.2013 16:28 3,2 C 1,1 C 91 % 1027,8 hPa 0,0 l/m 0 min 0 min 0,0 UV-I 5 W/m 0,0 km/h (0 Bft)
03.12.2013 16:30 3,1 C 1,1 C 91 % 1027,7 hPa 0,0 l/m 0 min 0 min 0,0 UV-I 0 W/m 0,0 km/h (0 Bft)
03.12.2013 16:32 3,0 C 1,1 C 91 % 1027,7 hPa 0,0 l/m 0 min 0 min 0,0 UV-I 0 W/m 0,0 km/h (0 Bft)
03.12.2013 16:34 2,9 C 0,6 C 91 % 1027,7 hPa 0,0 l/m 0 min 0 min 0,0 UV-I 0 W/m 0,0 km/h (0 Bft)
03.12.2013 16:36 2,8 C 0,6 C 91 % 1027,7 hPa 0,0 l/m 0 min 0 min 0,0 UV-I 0 W/m 0,0 km/h (0 Bft)
03.12.2013 16:38 2,7 C 0,6 C 91 % 1027,7 hPa 0,0 l/m 0 min 0 min 0,0 UV-I 0 W/m 0,0 km/h (0 Bft)
03.12.2013 16:40 2,6 C 0,6 C 91 % 1027,7 hPa 0,0 l/m 0 min 0 min 0,0 UV-I 0 W/m 0,0 km/h (0 Bft)
03.12.2013 16:42 2,5 C 0,6 C 91 % 1027,6 hPa 0,0 l/m 0 min 0 min 0,0 UV-I 0 W/m 0,0 km/h (0 Bft)
03.12.2013 16:44 2,4 C 0,6 C 92 % 1027,7 hPa 0,0 l/m 0 min 0 min 0,0 UV-I 0 W/m 0,0 km/h (0 Bft)
03.12.2013 16:46 2,4 C 0,6 C 92 % 1027,6 hPa 0,0 l/m 0 min 0 min 0,0 UV-I 0 W/m 0,0 km/h (0 Bft)
03.12.2013 16:48 2,4 C 0,6 C 92 % 1027,6 hPa 0,0 l/m 0 min 0 min 0,0 UV-I 0 W/m 0,0 km/h (0 Bft)
03.12.2013 16:50 2,3 C 0,0 C 92 % 1027,6 hPa 0,0 l/m 0 min 0 min 0,0 UV-I 0 W/m 0,0 km/h (0 Bft)
03.12.2013 16:52 2,2 C 0,0 C 92 % 1027,6 hPa 0,0 l/m 0 min 0 min 0,0 UV-I 0 W/m 0,0 km/h (0 Bft)
03.12.2013 16:54 2,1 C 0,0 C 92 % 1027,6 hPa 0,0 l/m 0 min 0 min 0,0 UV-I 0 W/m 0,0 km/h (0 Bft)
03.12.2013 16:56 2,1 C 0,0 C 92 % 1027,6 hPa 0,0 l/m 0 min 0 min 0,0 UV-I 0 W/m 0,0 km/h (0 Bft)
03.12.2013 16:58 2,1 C 0,0 C 93 % 1027,6 hPa 0,0 l/m 0 min 0 min 0,0 UV-I 0 W/m 0,0 km/h (0 Bft)
03.12.2013 17:00 2,1 C 0,0 C 93 % 1027,6 hPa 0,0 l/m 0 min 0 min 0,0 UV-I 0 W/m 0,0 km/h (0 Bft)
03.12.2013 17:02 2,0 C 0,0 C 93 % 1027,6 hPa 0,0 l/m 0 min 0 min 0,0 UV-I 0 W/m 0,0 km/h (0 Bft)
03.12.2013 17:04 1,9 C 0,0 C 93 % 1027,6 hPa 0,0 l/m 0 min 0 min 0,0 UV-I 0 W/m 0,0 km/h (0 Bft)
03.12.2013 17:06 1,8 C 0,0 C 93 % 1027,6 hPa 0,0 l/m 0 min 0 min 0,0 UV-I 0 W/m 0,0 km/h (0 Bft)
03.12.2013 17:08 1,7 C 0,0 C 93 % 1027,5 hPa 0,0 l/m 0 min 0 min 0,0 UV-I 0 W/m 0,0 km/h (0 Bft)
03.12.2013 17:10 1,7 C 0,0 C 93 % 1027,5 hPa 0,0 l/m 0 min 0 min 0,0 UV-I 0 W/m 0,0 km/h (0 Bft)
03.12.2013 17:12 1,6 C 0,0 C 93 % 1027,4 hPa 0,0 l/m 0 min 0 min 0,0 UV-I 0 W/m 0,0 km/h (0 Bft)
03.12.2013 17:14 1,7 C -0,6 C 93 % 1027,4 hPa 0,0 l/m 0 min 0 min 0,0 UV-I 0 W/m 0,0 km/h (0 Bft)
03.12.2013 17:16 1,7 C -0,6 C 93 % 1027,4 hPa 0,0 l/m 0 min 0 min 0,0 UV-I 0 W/m 0,0 km/h (0 Bft)
03.12.2013 17:18 1,8 C -0,6 C 94 % 1027,4 hPa 0,0 l/m 0 min 0 min 0,0 UV-I 0 W/m 0,0 km/h (0 Bft)
03.12.2013 17:20 1,8 C -0,6 C 94 % 1027,4 hPa 0,0 l/m 0 min 0 min 0,0 UV-I 0 W/m 0,0 km/h (0 Bft)
03.12.2013 17:22 1,8 C -0,6 C 94 % 1027,4 hPa 0,0 l/m 0 min 0 min 0,0 UV-I 0 W/m 0,0 km/h (0 Bft)
03.12.2013 17:24 1,8 C -0,6 C 94 % 1027,4 hPa 0,0 l/m 0 min 0 min 0,0 UV-I 0 W/m 0,0 km/h (0 Bft)
03.12.2013 17:26 1,8 C -0,6 C 94 % 1027,4 hPa 0,0 l/m 0 min 0 min 0,0 UV-I 0 W/m 0,0 km/h (0 Bft)
03.12.2013 17:28 1,9 C -0,6 C 94 % 1027,4 hPa 0,0 l/m 0 min 0 min 0,0 UV-I 0 W/m 0,0 km/h (0 Bft)
03.12.2013 17:30 1,9 C -0,6 C 94 % 1027,4 hPa 0,0 l/m 0 min 0 min 0,0 UV-I 0 W/m 0,0 km/h (0 Bft)
03.12.2013 17:32 1,9 C -0,6 C 94 % 1027,4 hPa 0,0 l/m 0 min 0 min 0,0 UV-I 0 W/m 0,0 km/h (0 Bft)
03.12.2013 17:34 1,9 C -0,6 C 94 % 1027,4 hPa 0,0 l/m 0 min 0 min 0,0 UV-I 0 W/m 0,0 km/h (0 Bft)
03.12.2013 17:36 1,8 C -0,6 C 94 % 1027,4 hPa 0,0 l/m 0 min 0 min 0,0 UV-I 0 W/m 0,0 km/h (0 Bft)
03.12.2013 17:38 1,8 C -0,6 C 95 % 1027,3 hPa 0,0 l/m 0 min 0 min 0,0 UV-I 0 W/m 0,0 km/h (0 Bft)
03.12.2013 17:40 1,8 C -0,6 C 95 % 1027,4 hPa 0,0 l/m 0 min 0 min 0,0 UV-I 0 W/m 0,0 km/h (0 Bft)
03.12.2013 17:42 1,8 C -0,6 C 95 % 1027,3 hPa 0,0 l/m 0 min 0 min 0,0 UV-I 0 W/m 0,0 km/h (0 Bft)
03.12.2013 17:44 1,7 C -0,6 C 94 % 1027,3 hPa 0,0 l/m 0 min 0 min 0,0 UV-I 0 W/m 0,0 km/h (0 Bft)
03.12.2013 17:46 1,6 C -0,6 C 94 % 1027,3 hPa 0,0 l/m 0 min 0 min 0,0 UV-I 0 W/m 0,0 km/h (0 Bft)
03.12.2013 17:48 1,6 C -0,6 C 95 % 1027,4 hPa 0,0 l/m 0 min 0 min 0,0 UV-I 0 W/m 0,0 km/h (0 Bft)
03.12.2013 17:50 1,6 C -0,6 C 95 % 1027,4 hPa 0,0 l/m 0 min 0 min 0,0 UV-I 0 W/m 0,0 km/h (0 Bft)
03.12.2013 17:52 1,6 C -0,6 C 95 % 1027,3 hPa 0,0 l/m 0 min 0 min 0,0 UV-I 0 W/m 0,0 km/h (0 Bft)
03.12.2013 17:54 1,6 C -0,6 C 95 % 1027,4 hPa 0,0 l/m 0 min 0 min 0,0 UV-I 0 W/m 0,0 km/h (0 Bft)
03.12.2013 17:56 1,6 C -0,6 C 95 % 1027,4 hPa 0,0 l/m 0 min 0 min 0,0 UV-I 0 W/m 0,0 km/h (0 Bft)
03.12.2013 17:58 1,6 C -0,6 C 95 % 1027,3 hPa 0,0 l/m 0 min 0 min 0,0 UV-I 0 W/m 0,0 km/h (0 Bft)
03.12.2013 18:00 1,5 C -0,6 C 95 % 1027,3 hPa 0,0 l/m 0 min 0 min 0,0 UV-I 0 W/m 0,0 km/h (0 Bft)
03.12.2013 18:02 1,5 C -0,6 C 95 % 1027,3 hPa 0,0 l/m 0 min 0 min 0,0 UV-I 0 W/m 0,0 km/h (0 Bft)
03.12.2013 18:04 1,5 C -0,6 C 95 % 1027,3 hPa 0,0 l/m 0 min 0 min 0,0 UV-I 0 W/m 0,0 km/h (0 Bft)
03.12.2013 18:06 1,5 C -0,6 C 95 % 1027,3 hPa 0,0 l/m 0 min 0 min 0,0 UV-I 0 W/m 0,0 km/h (0 Bft)
03.12.2013 18:08 1,4 C -0,6 C 95 % 1027,3 hPa 0,0 l/m 0 min 0 min 0,0 UV-I 0 W/m 0,0 km/h (0 Bft)
03.12.2013 18:10 1,4 C -0,6 C 95 % 1027,2 hPa 0,0 l/m 0 min 0 min 0,0 UV-I 0 W/m 0,0 km/h (0 Bft)
03.12.2013 18:12 1,4 C -0,6 C 95 % 1027,2 hPa 0,0 l/m 0 min 0 min 0,0 UV-I 0 W/m 0,0 km/h (0 Bft)
03.12.2013 18:14 1,4 C -0,6 C 95 % 1027,2 hPa 0,0 l/m 0 min 0 min 0,0 UV-I 0 W/m 0,0 km/h (0 Bft)
03.12.2013 18:16 1,4 C -0,6 C 95 % 1027,2 hPa 0,0 l/m 0 min 0 min 0,0 UV-I 0 W/m 0,0 km/h (0 Bft)
03.12.2013 18:18 1,4 C -0,6 C 95 % 1027,2 hPa 0,0 l/m 0 min 0 min 0,0 UV-I 0 W/m 0,0 km/h (0 Bft)
03.12.2013 18:20 1,5 C -0,6 C 95 % 1027,2 hPa 0,0 l/m 0 min 0 min 0,0 UV-I 0 W/m 0,0 km/h (0 Bft)
03.12.2013 18:22 1,5 C -0,6 C 95 % 1027,0 hPa 0,0 l/m 0 min 0 min 0,0 UV-I 0 W/m 0,0 km/h (0 Bft)
03.12.2013 18:24 1,5 C -0,6 C 95 % 1027,1 hPa 0,0 l/m 0 min 0 min 0,0 UV-I 0 W/m 0,0 km/h (0 Bft)
03.12.2013 18:26 1,5 C -0,6 C 95 % 1027,2 hPa 0,0 l/m 0 min 0 min 0,0 UV-I 0 W/m 0,0 km/h (0 Bft)
03.12.2013 18:28 1,4 C -0,6 C 96 % 1027,2 hPa 0,0 l/m 0 min 0 min 0,0 UV-I 0 W/m 0,0 km/h (0 Bft)
03.12.2013 18:30 1,3 C -0,6 C 95 % 1027,2 hPa 0,0 l/m 0 min 0 min 0,0 UV-I 0 W/m 0,0 km/h (0 Bft)
03.12.2013 18:32 1,3 C -0,6 C 95 % 1027,2 hPa 0,0 l/m 0 min 0 min 0,0 UV-I 0 W/m 0,0 km/h (0 Bft)
03.12.2013 18:34 1,2 C -0,6 C 95 % 1027,2 hPa 0,0 l/m 0 min 0 min 0,0 UV-I 0 W/m 0,0 km/h (0 Bft)
03.12.2013 18:36 1,1 C -1,1 C 95 % 1027,2 hPa 0,0 l/m 0 min 0 min 0,0 UV-I 0 W/m 0,0 km/h (0 Bft)
03.12.2013 18:38 1,0 C -1,1 C 95 % 1027,2 hPa 0,0 l/m 0 min 0 min 0,0 UV-I 0 W/m 0,0 km/h (0 Bft)
03.12.2013 18:40 0,9 C -1,1 C 95 % 1027,2 hPa 0,0 l/m 0 min 0 min 0,0 UV-I 0 W/m 0,0 km/h (0 Bft)
03.12.2013 18:42 0,9 C -1,1 C 95 % 1027,2 hPa 0,0 l/m 0 min 0 min 0,0 UV-I 0 W/m 0,0 km/h (0 Bft)
03.12.2013 18:44 0,9 C -1,1 C 95 % 1027,2 hPa 0,0 l/m 0 min 0 min 0,0 UV-I 0 W/m 0,0 km/h (0 Bft)
03.12.2013 18:46 0,9 C -1,1 C 95 % 1027,2 hPa 0,0 l/m 0 min 0 min 0,0 UV-I 0 W/m 0,0 km/h (0 Bft)
03.12.2013 18:48 0,9 C -1,1 C 95 % 1027,2 hPa 0,0 l/m 0 min 0 min 0,0 UV-I 0 W/m 0,0 km/h (0 Bft)
03.12.2013 18:50 0,9 C -1,1 C 96 % 1027,1 hPa 0,0 l/m 0 min 0 min 0,0 UV-I 0 W/m 0,0 km/h (0 Bft)
03.12.2013 18:52 0,9 C -1,1 C 96 % 1027,1 hPa 0,0 l/m 0 min 0 min 0,0 UV-I 0 W/m 0,0 km/h (0 Bft)
03.12.2013 18:54 0,9 C -1,1 C 96 % 1027,1 hPa 0,0 l/m 0 min 0 min 0,0 UV-I 0 W/m 0,0 km/h (0 Bft)
03.12.2013 18:56 0,9 C -1,1 C 96 % 1027,1 hPa 0,0 l/m 0 min 0 min 0,0 UV-I 0 W/m 0,0 km/h (0 Bft)
03.12.2013 18:58 0,9 C -1,1 C 96 % 1027,2 hPa 0,0 l/m 0 min 0 min 0,0 UV-I 0 W/m 0,0 km/h (0 Bft)
03.12.2013 19:00 0,9 C -1,1 C 96 % 1027,2 hPa 0,0 l/m 0 min 0 min 0,0 UV-I 0 W/m 0,0 km/h (0 Bft)
03.12.2013 19:02 0,8 C -1,1 C 96 % 1027,1 hPa 0,0 l/m 0 min 0 min 0,0 UV-I 0 W/m 0,0 km/h (0 Bft)
03.12.2013 19:04 0,7 C -1,1 C 96 % 1027,1 hPa 0,0 l/m 0 min 0 min 0,0 UV-I 0 W/m 0,0 km/h (0 Bft)
03.12.2013 19:06 0,7 C -1,1 C 96 % 1027,1 hPa 0,0 l/m 0 min 0 min 0,0 UV-I 0 W/m 0,0 km/h (0 Bft)
03.12.2013 19:08 0,7 C -1,1 C 96 % 1027,1 hPa 0,0 l/m 0 min 0 min 0,0 UV-I 0 W/m 0,0 km/h (0 Bft)
03.12.2013 19:10 0,7 C -1,1 C 96 % 1027,1 hPa 0,0 l/m 0 min 0 min 0,0 UV-I 0 W/m 0,0 km/h (0 Bft)
03.12.2013 19:12 0,7 C -1,1 C 96 % 1027,1 hPa 0,0 l/m 0 min 0 min 0,0 UV-I 0 W/m 0,0 km/h (0 Bft)
03.12.2013 19:14 0,7 C -1,1 C 96 % 1027,1 hPa 0,0 l/m 0 min 0 min 0,0 UV-I 0 W/m 0,0 km/h (0 Bft)
03.12.2013 19:16 0,7 C -1,1 C 96 % 1027,2 hPa 0,0 l/m 0 min 0 min 0,0 UV-I 0 W/m 0,0 km/h (0 Bft)
03.12.2013 19:18 0,6 C -1,7 C 96 % 1027,1 hPa 0,0 l/m 0 min 0 min 0,0 UV-I 0 W/m 0,0 km/h (0 Bft)
03.12.2013 19:20 0,5 C -1,7 C 96 % 1027,2 hPa 0,0 l/m 0 min 0 min 0,0 UV-I 0 W/m 0,0 km/h (0 Bft)
03.12.2013 19:22 0,4 C -1,7 C 96 % 1027,1 hPa 0,0 l/m 0 min 0 min 0,0 UV-I 0 W/m 0,0 km/h (0 Bft)
03.12.2013 19:24 0,3 C -1,7 C 96 % 1027,1 hPa 0,0 l/m 0 min 0 min 0,0 UV-I 0 W/m 0,0 km/h (0 Bft)
03.12.2013 19:26 0,3 C -1,7 C 96 % 1027,1 hPa 0,0 l/m 0 min 0 min 0,0 UV-I 0 W/m 0,0 km/h (0 Bft)
03.12.2013 19:28 0,2 C -1,7 C 96 % 1027,1 hPa 0,0 l/m 0 min 0 min 0,0 UV-I 0 W/m 0,0 km/h (0 Bft)
03.12.2013 19:30 0,2 C -1,7 C 96 % 1027,2 hPa 0,0 l/m 0 min 0 min 0,0 UV-I 0 W/m 0,0 km/h (0 Bft)
03.12.2013 19:32 0,1 C -1,7 C 96 % 1027,2 hPa 0,0 l/m 0 min 0 min 0,0 UV-I 0 W/m 0,0 km/h (0 Bft)
03.12.2013 19:34 -0,1 C -1,7 C 96 % 1027,1 hPa 0,0 l/m 0 min 0 min 0,0 UV-I 0 W/m 0,0 km/h (0 Bft)
03.12.2013 19:36 -0,1 C -1,7 C 96 % 1027,1 hPa 0,0 l/m 0 min 0 min 0,0 UV-I 0 W/m 0,0 km/h (0 Bft)
03.12.2013 19:38 -0,2 C -1,7 C 96 % 1027,1 hPa 0,0 l/m 0 min 0 min 0,0 UV-I 0 W/m 0,0 km/h (0 Bft)
03.12.2013 19:40 -0,2 C -1,7 C 96 % 1027,1 hPa 0,0 l/m 0 min 0 min 0,0 UV-I 0 W/m 0,0 km/h (0 Bft)
03.12.2013 19:42 -0,3 C -1,7 C 96 % 1027,1 hPa 0,0 l/m 0 min 0 min 0,0 UV-I 0 W/m 0,0 km/h (0 Bft)
03.12.2013 19:44 -0,3 C -1,7 C 96 % 1027,1 hPa 0,0 l/m 0 min 0 min 0,0 UV-I 0 W/m 0,0 km/h (0 Bft)
03.12.2013 19:46 -0,3 C -1,7 C 96 % 1027,2 hPa 0,0 l/m 0 min 0 min 0,0 UV-I 0 W/m 0,0 km/h (0 Bft)
03.12.2013 19:48 -0,4 C -1,7 C 96 % 1027,2 hPa 0,0 l/m 0 min 0 min 0,0 UV-I 0 W/m 0,0 km/h (0 Bft)
03.12.2013 19:50 -0,4 C -1,7 C 96 % 1027,1 hPa 0,0 l/m 0 min 0 min 0,0 UV-I 0 W/m 0,0 km/h (0 Bft)
03.12.2013 19:52 -0,4 C -2,2 C 96 % 1027,2 hPa 0,0 l/m 0 min 0 min 0,0 UV-I 0 W/m 0,0 km/h (0 Bft)
03.12.2013 19:54 -0,4 C -2,2 C 96 % 1027,2 hPa 0,0 l/m 0 min 0 min 0,0 UV-I 0 W/m 0,0 km/h (0 Bft)
03.12.2013 19:56 -0,4 C -2,2 C 96 % 1027,2 hPa 0,0 l/m 0 min 0 min 0,0 UV-I 0 W/m 0,0 km/h (0 Bft)
03.12.2013 19:58 -0,4 C -2,2 C 96 % 1027,1 hPa 0,0 l/m 0 min 0 min 0,0 UV-I 0 W/m 0,0 km/h (0 Bft)
03.12.2013 20:00 -0,4 C -2,2 C 96 % 1027,1 hPa 0,0 l/m 0 min 0 min 0,0 UV-I 0 W/m 0,0 km/h (0 Bft)
03.12.2013 20:02 -0,4 C -2,2 C 96 % 1027,0 hPa 0,0 l/m 0 min 0 min 0,0 UV-I 0 W/m 0,0 km/h (0 Bft)
03.12.2013 20:04 -0,5 C -2,2 C 96 % 1027,0 hPa 0,0 l/m 0 min 0 min 0,0 UV-I 0 W/m 0,0 km/h (0 Bft)
03.12.2013 20:06 -0,6 C -2,2 C 96 % 1027,1 hPa 0,0 l/m 0 min 0 min 0,0 UV-I 0 W/m 0,0 km/h (0 Bft)
03.12.2013 20:08 -0,5 C -2,2 C 96 % 1027,1 hPa 0,0 l/m 0 min 0 min 0,0 UV-I 0 W/m 0,0 km/h (0 Bft)
03.12.2013 20:10 -0,4 C -2,2 C 96 % 1027,0 hPa 0,0 l/m 0 min 0 min 0,0 UV-I 0 W/m 0,0 km/h (0 Bft)
03.12.2013 20:12 -0,4 C -2,2 C 96 % 1027,0 hPa 0,0 l/m 0 min 0 min 0,0 UV-I 0 W/m 0,0 km/h (0 Bft)
03.12.2013 20:14 -0,4 C -2,2 C 96 % 1027,0 hPa 0,0 l/m 0 min 0 min 0,0 UV-I 0 W/m 0,0 km/h (0 Bft)
03.12.2013 20:16 -0,4 C -2,2 C 96 % 1027,0 hPa 0,0 l/m 0 min 0 min 0,0 UV-I 0 W/m 0,0 km/h (0 Bft)
03.12.2013 20:18 -0,4 C -2,2 C 96 % 1027,0 hPa 0,0 l/m 0 min 0 min 0,0 UV-I 0 W/m 0,0 km/h (0 Bft)
03.12.2013 20:20 -0,4 C -2,2 C 96 % 1027,0 hPa 0,0 l/m 0 min 0 min 0,0 UV-I 0 W/m 0,0 km/h (0 Bft)
03.12.2013 20:22 -0,4 C -2,2 C 97 % 1027,0 hPa 0,0 l/m 0 min 0 min 0,0 UV-I 0 W/m 0,0 km/h (0 Bft)
03.12.2013 20:24 -0,4 C -2,2 C 97 % 1027,0 hPa 0,0 l/m 0 min 0 min 0,0 UV-I 0 W/m 0,0 km/h (0 Bft)
03.12.2013 20:26 -0,5 C -2,2 C 97 % 1027,0 hPa 0,0 l/m 0 min 0 min 0,0 UV-I 0 W/m 0,0 km/h (0 Bft)
03.12.2013 20:28 -0,6 C -2,2 C 97 % 1027,0 hPa 0,0 l/m 0 min 0 min 0,0 UV-I 0 W/m 0,0 km/h (0 Bft)
03.12.2013 20:30 -0,6 C -2,2 C 96 % 1026,9 hPa 0,0 l/m 0 min 0 min 0,0 UV-I 0 W/m 0,0 km/h (0 Bft)
03.12.2013 20:32 -0,7 C -2,2 C 96 % 1026,9 hPa 0,0 l/m 0 min 0 min 0,0 UV-I 0 W/m 0,0 km/h (0 Bft)
03.12.2013 20:34 -0,7 C -2,2 C 97 % 1026,9 hPa 0,0 l/m 0 min 0 min 0,0 UV-I 0 W/m 0,0 km/h (0 Bft)
03.12.2013 20:36 -0,8 C -2,2 C 97 % 1027,0 hPa 0,0 l/m 0 min 0 min 0,0 UV-I 0 W/m 0,0 km/h (0 Bft)
03.12.2013 20:38 -0,7 C -2,2 C 97 % 1026,9 hPa 0,0 l/m 0 min 0 min 0,0 UV-I 0 W/m 0,0 km/h (0 Bft)
03.12.2013 20:40 -0,7 C -2,2 C 97 % 1027,0 hPa 0,0 l/m 0 min 0 min 0,0 UV-I 0 W/m 0,0 km/h (0 Bft)
03.12.2013 20:42 -0,7 C -2,2 C 97 % 1026,9 hPa 0,0 l/m 0 min 0 min 0,0 UV-I 0 W/m 0,0 km/h (0 Bft)
03.12.2013 20:44 -0,7 C -2,2 C 97 % 1026,9 hPa 0,0 l/m 0 min 0 min 0,0 UV-I 0 W/m 0,0 km/h (0 Bft)
03.12.2013 20:46 -0,7 C -2,2 C 97 % 1026,9 hPa 0,0 l/m 0 min 0 min 0,0 UV-I 0 W/m 0,0 km/h (0 Bft)
03.12.2013 20:48 -0,8 C -2,2 C 97 % 1026,9 hPa 0,0 l/m 0 min 0 min 0,0 UV-I 0 W/m 0,0 km/h (0 Bft)
03.12.2013 20:50 -0,8 C -2,2 C 97 % 1026,9 hPa 0,0 l/m 0 min 0 min 0,0 UV-I 0 W/m 0,0 km/h (0 Bft)
03.12.2013 20:52 -0,8 C -2,2 C 97 % 1026,9 hPa 0,0 l/m 0 min 0 min 0,0 UV-I 0 W/m 0,0 km/h (0 Bft)
03.12.2013 20:54 -0,8 C -2,2 C 97 % 1026,8 hPa 0,0 l/m 0 min 0 min 0,0 UV-I 0 W/m 0,0 km/h (0 Bft)
03.12.2013 20:56 -0,8 C -2,2 C 97 % 1026,8 hPa 0,0 l/m 0 min 0 min 0,0 UV-I 0 W/m 0,0 km/h (0 Bft)
03.12.2013 20:58 -0,7 C -2,2 C 97 % 1026,9 hPa 0,0 l/m 0 min 0 min 0,0 UV-I 0 W/m 0,0 km/h (0 Bft)
03.12.2013 21:00 -0,8 C -2,2 C 97 % 1026,9 hPa 0,0 l/m 0 min 0 min 0,0 UV-I 0 W/m 0,0 km/h (0 Bft)
03.12.2013 21:02 -0,8 C -2,2 C 97 % 1026,9 hPa 0,0 l/m 0 min 0 min 0,0 UV-I 0 W/m 0,0 km/h (0 Bft)
03.12.2013 21:04 -0,8 C -2,2 C 100 % 1026,8 hPa 0,0 l/m 0 min 0 min 0,0 UV-I 0 W/m 0,0 km/h (0 Bft)
03.12.2013 21:06 -0,8 C -2,2 C 97 % 1026,8 hPa 0,0 l/m 0 min 0 min 0,0 UV-I 0 W/m 0,0 km/h (0 Bft)
03.12.2013 21:08 -0,9 C -2,2 C 97 % 1026,8 hPa 0,0 l/m 0 min 0 min 0,0 UV-I 0 W/m 0,0 km/h (0 Bft)
03.12.2013 21:10 -0,9 C -2,2 C 97 % 1026,8 hPa 0,0 l/m 0 min 0 min 0,0 UV-I 0 W/m 0,0 km/h (0 Bft)
03.12.2013 21:12 -0,9 C -2,2 C 97 % 1026,8 hPa 0,0 l/m 0 min 0 min 0,0 UV-I 0 W/m 0,0 km/h (0 Bft)
03.12.2013 21:14 -0,9 C -2,2 C 97 % 1026,8 hPa 0,0 l/m 0 min 0 min 0,0 UV-I 0 W/m 0,0 km/h (0 Bft)
03.12.2013 21:16 -0,9 C -2,2 C 97 % 1026,8 hPa 0,0 l/m 0 min 0 min 0,0 UV-I 0 W/m 0,0 km/h (0 Bft)
03.12.2013 21:18 -0,9 C -2,2 C 97 % 1026,8 hPa 0,0 l/m 0 min 0 min 0,0 UV-I 0 W/m 0,0 km/h (0 Bft)
03.12.2013 21:20 -0,9 C -2,2 C 97 % 1026,9 hPa 0,0 l/m 0 min 0 min 0,0 UV-I 0 W/m 0,0 km/h (0 Bft)
03.12.2013 21:22 -1,0 C -2,2 C 97 % 1026,9 hPa 0,0 l/m 0 min 0 min 0,0 UV-I 0 W/m 0,0 km/h (0 Bft)
03.12.2013 21:24 -1,1 C -2,2 C 97 % 1026,8 hPa 0,0 l/m 0 min 0 min 0,0 UV-I 0 W/m 0,0 km/h (0 Bft)
03.12.2013 21:26 -1,1 C -2,2 C 97 % 1026,8 hPa 0,0 l/m 0 min 0 min 0,0 UV-I 0 W/m 0,0 km/h (0 Bft)
03.12.2013 21:28 -1,2 C -2,2 C 97 % 1026,8 hPa 0,0 l/m 0 min 0 min 0,0 UV-I 0 W/m 0,0 km/h (0 Bft)
03.12.2013 21:30 -1,2 C -2,2 C 97 % 1026,8 hPa 0,0 l/m 0 min 0 min 0,0 UV-I 0 W/m 0,0 km/h (0 Bft)
03.12.2013 21:32 -1,2 C -2,2 C 97 % 1026,8 hPa 0,0 l/m 0 min 0 min 0,0 UV-I 0 W/m 0,0 km/h (0 Bft)
03.12.2013 21:34 -1,2 C -2,2 C 97 % 1026,7 hPa 0,0 l/m 0 min 0 min 0,0 UV-I 0 W/m 0,0 km/h (0 Bft)
03.12.2013 21:36 -1,2 C -2,2 C 97 % 1026,7 hPa 0,0 l/m 0 min 0 min 0,0 UV-I 0 W/m 0,0 km/h (0 Bft)
03.12.2013 21:38 -1,3 C -2,8 C 97 % 1026,7 hPa 0,0 l/m 0 min 0 min 0,0 UV-I 0 W/m 0,0 km/h (0 Bft)
03.12.2013 21:40 -1,3 C -2,8 C 97 % 1026,7 hPa 0,0 l/m 0 min 0 min 0,0 UV-I 0 W/m 0,0 km/h (0 Bft)
03.12.2013 21:42 -1,3 C -2,8 C 97 % 1026,7 hPa 0,0 l/m 0 min 0 min 0,0 UV-I 0 W/m 0,0 km/h (0 Bft)
03.12.2013 21:44 -1,3 C -2,8 C 97 % 1026,7 hPa 0,0 l/m 0 min 0 min 0,0 UV-I 0 W/m 0,0 km/h (0 Bft)
03.12.2013 21:46 -1,3 C -2,8 C 97 % 1026,8 hPa 0,0 l/m 0 min 0 min 0,0 UV-I 0 W/m 0,0 km/h (0 Bft)
03.12.2013 21:48 -1,4 C -2,8 C 97 % 1026,7 hPa 0,0 l/m 0 min 0 min 0,0 UV-I 0 W/m 0,0 km/h (0 Bft)
03.12.2013 21:50 -1,4 C -2,8 C 97 % 1026,7 hPa 0,0 l/m 0 min 0 min 0,0 UV-I 0 W/m 0,0 km/h (0 Bft)
03.12.2013 21:52 -1,4 C -2,8 C 97 % 1026,7 hPa 0,0 l/m 0 min 0 min 0,0 UV-I 0 W/m 0,0 km/h (0 Bft)
03.12.2013 21:54 -1,4 C -2,8 C 97 % 1026,6 hPa 0,0 l/m 0 min 0 min 0,0 UV-I 0 W/m 0,0 km/h (0 Bft)
03.12.2013 21:56 -1,4 C -2,8 C 100 % 1026,7 hPa 0,0 l/m 0 min 0 min 0,0 UV-I 0 W/m 0,0 km/h (0 Bft)
03.12.2013 21:58 -1,4 C -2,8 C 97 % 1026,7 hPa 0,0 l/m 0 min 0 min 0,0 UV-I 0 W/m 0,0 km/h (0 Bft)
03.12.2013 22:00 -1,4 C -2,8 C 100 % 1026,7 hPa 0,0 l/m 0 min 0 min 0,0 UV-I 0 W/m 0,0 km/h (0 Bft)
03.12.2013 22:02 -1,4 C -2,8 C 97 % 1026,7 hPa 0,0 l/m 0 min 0 min 0,0 UV-I 0 W/m 0,0 km/h (0 Bft)
03.12.2013 22:04 -1,4 C -2,8 C 100 % 1026,7 hPa 0,0 l/m 0 min 0 min 0,0 UV-I 0 W/m 0,0 km/h (0 Bft)
03.12.2013 22:06 -1,4 C -2,8 C 97 % 1026,6 hPa 0,0 l/m 0 min 0 min 0,0 UV-I 0 W/m 0,0 km/h (0 Bft)
03.12.2013 22:08 -1,4 C -2,8 C 97 % 1026,5 hPa 0,0 l/m 0 min 0 min 0,0 UV-I 0 W/m 0,0 km/h (0 Bft)
03.12.2013 22:10 -1,3 C -2,8 C 97 % 1026,5 hPa 0,0 l/m 0 min 0 min 0,0 UV-I 0 W/m 0,0 km/h (0 Bft)
03.12.2013 22:12 -1,4 C -2,8 C 97 % 1026,5 hPa 0,0 l/m 0 min 0 min 0,0 UV-I 0 W/m 0,0 km/h (0 Bft)
03.12.2013 22:14 -1,4 C -2,8 C 97 % 1026,4 hPa 0,0 l/m 0 min 0 min 0,0 UV-I 0 W/m 0,0 km/h (0 Bft)
03.12.2013 22:16 -1,4 C -2,8 C 97 % 1026,4 hPa 0,0 l/m 0 min 0 min 0,0 UV-I 0 W/m 0,0 km/h (0 Bft)
03.12.2013 22:18 -1,4 C -2,8 C 97 % 1026,5 hPa 0,0 l/m 0 min 0 min 0,0 UV-I 0 W/m 0,0 km/h (0 Bft)
03.12.2013 22:20 -1,4 C -2,8 C 97 % 1026,4 hPa 0,0 l/m 0 min 0 min 0,0 UV-I 0 W/m 0,0 km/h (0 Bft)
03.12.2013 22:22 -1,4 C -2,8 C 97 % 1026,5 hPa 0,0 l/m 0 min 0 min 0,0 UV-I 0 W/m 0,0 km/h (0 Bft)
03.12.2013 22:24 -1,4 C -2,8 C 97 % 1026,5 hPa 0,0 l/m 0 min 0 min 0,0 UV-I 0 W/m 0,0 km/h (0 Bft)
03.12.2013 22:26 -1,4 C -2,8 C 100 % 1026,4 hPa 0,0 l/m 0 min 0 min 0,0 UV-I 0 W/m 0,0 km/h (0 Bft)
03.12.2013 22:28 -1,4 C -2,8 C 97 % 1026,5 hPa 0,0 l/m 0 min 0 min 0,0 UV-I 0 W/m 0,0 km/h (0 Bft)
03.12.2013 22:30 -1,4 C -2,8 C 97 % 1026,5 hPa 0,0 l/m 0 min 0 min 0,0 UV-I 0 W/m 0,0 km/h (0 Bft)
03.12.2013 22:32 -1,5 C -2,8 C 97 % 1026,5 hPa 0,0 l/m 0 min 0 min 0,0 UV-I 0 W/m 0,0 km/h (0 Bft)
03.12.2013 22:34 -1,4 C -2,8 C 97 % 1026,5 hPa 0,0 l/m 0 min 0 min 0,0 UV-I 0 W/m 0,0 km/h (0 Bft)
03.12.2013 22:36 -1,4 C -2,8 C 97 % 1026,6 hPa 0,0 l/m 0 min 0 min 0,0 UV-I 0 W/m 0,0 km/h (0 Bft)
03.12.2013 22:38 -1,4 C -2,8 C 97 % 1026,5 hPa 0,0 l/m 0 min 0 min 0,0 UV-I 0 W/m 0,0 km/h (0 Bft)
03.12.2013 22:40 -1,4 C -2,8 C 97 % 1026,5 hPa 0,0 l/m 0 min 0 min 0,0 UV-I 0 W/m 0,0 km/h (0 Bft)
03.12.2013 22:42 -1,4 C -2,8 C 97 % 1026,6 hPa 0,0 l/m 0 min 0 min 0,0 UV-I 0 W/m 0,0 km/h (0 Bft)
03.12.2013 22:44 -1,5 C -2,8 C 97 % 1026,5 hPa 0,0 l/m 0 min 0 min 0,0 UV-I 0 W/m 0,0 km/h (0 Bft)
03.12.2013 22:46 -1,6 C -2,8 C 97 % 1026,5 hPa 0,0 l/m 0 min 0 min 0,0 UV-I 0 W/m 0,0 km/h (0 Bft)
03.12.2013 22:48 -1,6 C -2,8 C 97 % 1026,6 hPa 0,0 l/m 0 min 0 min 0,0 UV-I 0 W/m 0,0 km/h (0 Bft)
03.12.2013 22:50 -1,6 C -2,8 C 97 % 1026,5 hPa 0,0 l/m 0 min 0 min 0,0 UV-I 0 W/m 0,0 km/h (0 Bft)
03.12.2013 22:52 -1,6 C -2,8 C 97 % 1026,4 hPa 0,0 l/m 0 min 0 min 0,0 UV-I 0 W/m 0,0 km/h (0 Bft)
03.12.2013 22:54 -1,7 C -2,8 C 97 % 1026,3 hPa 0,0 l/m 0 min 0 min 0,0 UV-I 0 W/m 0,0 km/h (0 Bft)
03.12.2013 22:56 -1,7 C -2,8 C 97 % 1026,4 hPa 0,0 l/m 0 min 0 min 0,0 UV-I 0 W/m 0,0 km/h (0 Bft)
03.12.2013 22:58 -1,7 C -2,8 C 97 % 1026,4 hPa 0,0 l/m 0 min 0 min 0,0 UV-I 0 W/m 0,0 km/h (0 Bft)
03.12.2013 23:00 -1,7 C -2,8 C 97 % 1026,4 hPa 0,0 l/m 0 min 0 min 0,0 UV-I 0 W/m 0,0 km/h (0 Bft)
03.12.2013 23:02 -1,7 C -2,8 C 97 % 1026,4 hPa 0,0 l/m 0 min 0 min 0,0 UV-I 0 W/m 0,0 km/h (0 Bft)
03.12.2013 23:04 -1,8 C -2,8 C 97 % 1026,4 hPa 0,0 l/m 0 min 0 min 0,0 UV-I 0 W/m 0,0 km/h (0 Bft)
03.12.2013 23:06 -1,8 C -2,8 C 97 % 1026,4 hPa 0,0 l/m 0 min 0 min 0,0 UV-I 0 W/m 0,0 km/h (0 Bft)
03.12.2013 23:08 -1,8 C -2,8 C 97 % 1026,3 hPa 0,0 l/m 0 min 0 min 0,0 UV-I 0 W/m 0,0 km/h (0 Bft)
03.12.2013 23:10 -1,8 C -2,8 C 97 % 1026,2 hPa 0,0 l/m 0 min 0 min 0,0 UV-I 0 W/m 0,0 km/h (0 Bft)
03.12.2013 23:12 -1,9 C -2,8 C 97 % 1026,2 hPa 0,0 l/m 0 min 0 min 0,0 UV-I 0 W/m 0,0 km/h (0 Bft)
03.12.2013 23:14 -1,9 C -2,8 C 97 % 1026,3 hPa 0,0 l/m 0 min 0 min 0,0 UV-I 0 W/m 0,0 km/h (0 Bft)
03.12.2013 23:16 -1,9 C -2,8 C 97 % 1026,3 hPa 0,0 l/m 0 min 0 min 0,0 UV-I 0 W/m 0,0 km/h (0 Bft)
03.12.2013 23:18 -1,9 C -2,8 C 97 % 1026,3 hPa 0,0 l/m 0 min 0 min 0,0 UV-I 0 W/m 0,0 km/h (0 Bft)
03.12.2013 23:20 -1,9 C -2,8 C 97 % 1026,3 hPa 0,0 l/m 0 min 0 min 0,0 UV-I 0 W/m 0,0 km/h (0 Bft)
03.12.2013 23:22 -2,0 C -2,8 C 97 % 1026,3 hPa 0,0 l/m 0 min 0 min 0,0 UV-I 0 W/m 0,0 km/h (0 Bft)
03.12.2013 23:24 -1,9 C -2,8 C 97 % 1026,4 hPa 0,0 l/m 0 min 0 min 0,0 UV-I 0 W/m 0,0 km/h (0 Bft)
03.12.2013 23:26 -2,0 C -2,8 C 97 % 1026,3 hPa 0,0 l/m 0 min 0 min 0,0 UV-I 0 W/m 0,0 km/h (0 Bft)
03.12.2013 23:28 -2,0 C -2,8 C 97 % 1026,4 hPa 0,0 l/m 0 min 0 min 0,0 UV-I 0 W/m 0,0 km/h (0 Bft)
03.12.2013 23:30 -2,1 C -2,8 C 97 % 1026,4 hPa 0,0 l/m 0 min 0 min 0,0 UV-I 0 W/m 0,0 km/h (0 Bft)
03.12.2013 23:32 -2,1 C -2,8 C 97 % 1026,4 hPa 0,0 l/m 0 min 0 min 0,0 UV-I 0 W/m 0,0 km/h (0 Bft)
03.12.2013 23:34 -2,1 C -2,8 C 97 % 1026,4 hPa 0,0 l/m 0 min 0 min 0,0 UV-I 0 W/m 0,0 km/h (0 Bft)
03.12.2013 23:36 -2,1 C -2,8 C 97 % 1026,4 hPa 0,0 l/m 0 min 0 min 0,0 UV-I 0 W/m 0,0 km/h (0 Bft)
03.12.2013 23:38 -2,2 C -2,8 C 97 % 1026,4 hPa 0,0 l/m 0 min 0 min 0,0 UV-I 0 W/m 0,0 km/h (0 Bft)
03.12.2013 23:40 -2,2 C -2,8 C 97 % 1026,4 hPa 0,0 l/m 0 min 0 min 0,0 UV-I 0 W/m 0,0 km/h (0 Bft)
03.12.2013 23:42 -2,2 C -2,8 C 97 % 1026,5 hPa 0,0 l/m 0 min 0 min 0,0 UV-I 0 W/m 0,0 km/h (0 Bft)
03.12.2013 23:44 -2,3 C -2,8 C 97 % 1026,4 hPa 0,0 l/m 0 min 0 min 0,0 UV-I 0 W/m 0,0 km/h (0 Bft)
03.12.2013 23:46 -2,3 C -2,8 C 97 % 1026,4 hPa 0,0 l/m 0 min 0 min 0,0 UV-I 0 W/m 0,0 km/h (0 Bft)
03.12.2013 23:48 -2,3 C -2,8 C 97 % 1026,4 hPa 0,0 l/m 0 min 0 min 0,0 UV-I 0 W/m 0,0 km/h (0 Bft)
03.12.2013 23:50 -2,4 C -2,8 C 97 % 1026,4 hPa 0,0 l/m 0 min 0 min 0,0 UV-I 0 W/m 0,0 km/h (0 Bft)
03.12.2013 23:52 -2,4 C -3,3 C 97 % 1026,3 hPa 0,0 l/m 0 min 0 min 0,0 UV-I 0 W/m 0,0 km/h (0 Bft)
03.12.2013 23:54 -2,4 C -3,3 C 97 % 1026,3 hPa 0,0 l/m 0 min 0 min 0,0 UV-I 0 W/m 0,0 km/h (0 Bft)
03.12.2013 23:56 -2,4 C -3,3 C 97 % 1026,3 hPa 0,0 l/m 0 min 0 min 0,0 UV-I 0 W/m 0,0 km/h (0 Bft)
03.12.2013 23:58 -2,5 C -3,3 C 97 % 1026,2 hPa 0,0 l/m 0 min 0 min 0,0 UV-I 0 W/m 0,0 km/h (0 Bft)
_ Min-Zeit 23:58 23:52 13:08 23:10 - - - - - 00:00
Minimum _ -2,5 C -3,3 C 83 % 1026,2 hPa - - - - - 0,0 km/h (0 Bft)
_ Max-Zeit 13:56 13:36 21:04 00:00 10:54 09:34 00:00 00:00 12:00 03:42
Maximum _ 5,6 C 4,4 C 100 % 1030,9 hPa 0,2 l/m 2 min 0 min 0,0 UV-I 250 W/m 18,0 km/h
SO (3 Bft)
Durchschnitt _ 1,2 C -0,2 C 93 % 1028,5 hPa #0,2 l/m #4:18 h #0 min. 0,0 UV-I 121 W/m 1,6 km/h (1 Bft)
© 2013 W. Hausmann